<?xml version="1.0" encoding="UTF-8" standalone="no" ?>
<gpx xmlns="http://www.topografix.com/GPX/1/1" xmlns:xsi="http://www.w3.org/2001/XMLSchema-instance" xsi:schemaLocation="http://www.topografix.com/GPX/1/1 http://www.topografix.com/GPX/1/1/gpx.xsd" version="1.1" creator="VisuGPX - https://www.visugpx.com">
  <metadata>
    <name>Par les terrils et mare à goriaux.</name>
    <desc><![CDATA[Passage par 3 terrils: Lagrange (178), Lavoir de Rousseau (176) et l'observatoire de Sabatier Nord (175). Puis Mare à Goriaux.
14h44 - 17h54 . 3h10]]></desc>
  </metadata>
  <wpt lat="50.42947" lon="3.5195">
    <ele>37</ele>
    <name><![CDATA[Mert]]></name>
    <desc><![CDATA[c'est pas par là...]]></desc>
  </wpt>
  <trk>
    <name><![CDATA[Par les terrils et mare à goriaux.]]></name>
    <extensions>
      <line xmlns="http://www.topografix.com/GPX/gpx_style/0/2">
        <color>0000FF</color>
        <width>4</width>
      </line>
    </extensions>
    <trkseg>
      <trkpt lat="50.44964" lon="3.52643">
        <ele>29.4</ele>
        <time>2021-09-12T12:44:00.000Z</time>
      </trkpt>
      <trkpt lat="50.44958" lon="3.52647">
        <ele>29.7</ele>
        <time>2021-09-12T12:44:04.379Z</time>
      </trkpt>
      <trkpt lat="50.4495" lon="3.52651">
        <ele>29.9</ele>
        <time>2021-09-12T12:44:08.612Z</time>
      </trkpt>
      <trkpt lat="50.44931" lon="3.52664">
        <ele>30</ele>
        <time>2021-09-12T12:44:17.159Z</time>
      </trkpt>
      <trkpt lat="50.44918" lon="3.52673">
        <ele>30</ele>
        <time>2021-09-12T12:44:22.759Z</time>
      </trkpt>
      <trkpt lat="50.44903" lon="3.52685">
        <ele>30</ele>
        <time>2021-09-12T12:44:29.395Z</time>
      </trkpt>
      <trkpt lat="50.44892" lon="3.52693">
        <ele>30</ele>
        <time>2021-09-12T12:44:34.173Z</time>
      </trkpt>
      <trkpt lat="50.44873" lon="3.52705">
        <ele>29.6</ele>
        <time>2021-09-12T12:44:38.098Z</time>
      </trkpt>
      <trkpt lat="50.4486" lon="3.52713">
        <ele>29.7</ele>
        <time>2021-09-12T12:44:43.988Z</time>
      </trkpt>
      <trkpt lat="50.44829" lon="3.52736">
        <ele>30.5</ele>
        <time>2021-09-12T12:45:01.176Z</time>
      </trkpt>
      <trkpt lat="50.44815" lon="3.52746">
        <ele>30.8</ele>
        <time>2021-09-12T12:45:08.558Z</time>
      </trkpt>
      <trkpt lat="50.44792" lon="3.5276">
        <ele>31.3</ele>
        <time>2021-09-12T12:45:20.498Z</time>
      </trkpt>
      <trkpt lat="50.44772" lon="3.52771">
        <ele>31.4</ele>
        <time>2021-09-12T12:45:29.228Z</time>
      </trkpt>
      <trkpt lat="50.44743" lon="3.52786">
        <ele>32.3</ele>
        <time>2021-09-12T12:45:45.715Z</time>
      </trkpt>
      <trkpt lat="50.44711" lon="3.52796">
        <ele>33.8</ele>
        <time>2021-09-12T12:46:07.625Z</time>
      </trkpt>
      <trkpt lat="50.44691" lon="3.52798">
        <ele>34.1</ele>
        <time>2021-09-12T12:46:16.780Z</time>
      </trkpt>
      <trkpt lat="50.44661" lon="3.52802">
        <ele>35</ele>
        <time>2021-09-12T12:46:33.123Z</time>
      </trkpt>
      <trkpt lat="50.4464" lon="3.52802">
        <ele>35.1</ele>
        <time>2021-09-12T12:46:41.778Z</time>
      </trkpt>
      <trkpt lat="50.44617" lon="3.528">
        <ele>35.8</ele>
        <time>2021-09-12T12:46:54.360Z</time>
      </trkpt>
      <trkpt lat="50.44577" lon="3.52797">
        <ele>37</ele>
        <time>2021-09-12T12:47:16.117Z</time>
      </trkpt>
      <trkpt lat="50.44553" lon="3.52776">
        <ele>36.9</ele>
        <time>2021-09-12T12:47:26.375Z</time>
      </trkpt>
      <trkpt lat="50.44537" lon="3.5276">
        <ele>36.8</ele>
        <time>2021-09-12T12:47:33.293Z</time>
      </trkpt>
      <trkpt lat="50.4451" lon="3.52735">
        <ele>37</ele>
        <time>2021-09-12T12:47:46.415Z</time>
      </trkpt>
      <trkpt lat="50.4449" lon="3.52721">
        <ele>37</ele>
        <time>2021-09-12T12:47:55.047Z</time>
      </trkpt>
      <trkpt lat="50.44463" lon="3.52701">
        <ele>37.5</ele>
        <time>2021-09-12T12:48:08.947Z</time>
      </trkpt>
      <trkpt lat="50.4444" lon="3.52686">
        <ele>37.3</ele>
        <time>2021-09-12T12:48:14.469Z</time>
      </trkpt>
      <trkpt lat="50.44403" lon="3.52663">
        <ele>37.6</ele>
        <time>2021-09-12T12:48:31.319Z</time>
      </trkpt>
      <trkpt lat="50.44366" lon="3.52642">
        <ele>38</ele>
        <time>2021-09-12T12:48:48.419Z</time>
      </trkpt>
      <trkpt lat="50.44338" lon="3.52625">
        <ele>37.5</ele>
        <time>2021-09-12T12:48:54.375Z</time>
      </trkpt>
      <trkpt lat="50.44276" lon="3.52573">
        <ele>37.1</ele>
        <time>2021-09-12T12:49:19.860Z</time>
      </trkpt>
      <trkpt lat="50.44235" lon="3.52547">
        <ele>38</ele>
        <time>2021-09-12T12:49:41.284Z</time>
      </trkpt>
      <trkpt lat="50.44191" lon="3.52518">
        <ele>37.9</ele>
        <time>2021-09-12T12:49:59.508Z</time>
      </trkpt>
      <trkpt lat="50.44169" lon="3.52507">
        <ele>37.8</ele>
        <time>2021-09-12T12:50:08.043Z</time>
      </trkpt>
      <trkpt lat="50.44139" lon="3.52481">
        <ele>37.7</ele>
        <time>2021-09-12T12:50:20.972Z</time>
      </trkpt>
      <trkpt lat="50.44115" lon="3.52448">
        <ele>37.9</ele>
        <time>2021-09-12T12:50:34.313Z</time>
      </trkpt>
      <trkpt lat="50.44068" lon="3.52383">
        <ele>38</ele>
        <time>2021-09-12T12:50:59.367Z</time>
      </trkpt>
      <trkpt lat="50.44043" lon="3.52343">
        <ele>38</ele>
        <time>2021-09-12T12:51:13.437Z</time>
      </trkpt>
      <trkpt lat="50.44" lon="3.52284">
        <ele>38</ele>
        <time>2021-09-12T12:51:35.946Z</time>
      </trkpt>
      <trkpt lat="50.43958" lon="3.52224">
        <ele>37.5</ele>
        <time>2021-09-12T12:51:48.406Z</time>
      </trkpt>
      <trkpt lat="50.43881" lon="3.52117">
        <ele>34.2</ele>
        <time>2021-09-12T12:52:05.571Z</time>
      </trkpt>
      <trkpt lat="50.43853" lon="3.52079">
        <ele>34.3</ele>
        <time>2021-09-12T12:52:20.530Z</time>
      </trkpt>
      <trkpt lat="50.43812" lon="3.5202">
        <ele>34.8</ele>
        <time>2021-09-12T12:52:44.420Z</time>
      </trkpt>
      <trkpt lat="50.43788" lon="3.51987">
        <ele>35</ele>
        <time>2021-09-12T12:52:57.761Z</time>
      </trkpt>
      <trkpt lat="50.43755" lon="3.51937">
        <ele>34.8</ele>
        <time>2021-09-12T12:53:14.706Z</time>
      </trkpt>
      <trkpt lat="50.43727" lon="3.5189">
        <ele>35</ele>
        <time>2021-09-12T12:53:31.619Z</time>
      </trkpt>
      <trkpt lat="50.43707" lon="3.51865">
        <ele>35</ele>
        <time>2021-09-12T12:53:41.696Z</time>
      </trkpt>
      <trkpt lat="50.43685" lon="3.51833">
        <ele>35</ele>
        <time>2021-09-12T12:53:53.518Z</time>
      </trkpt>
      <trkpt lat="50.43667" lon="3.51822">
        <ele>35</ele>
        <time>2021-09-12T12:54:01.131Z</time>
      </trkpt>
      <trkpt lat="50.43631" lon="3.51821">
        <ele>35</ele>
        <time>2021-09-12T12:54:15.324Z</time>
      </trkpt>
      <trkpt lat="50.43572" lon="3.5182">
        <ele>36</ele>
        <time>2021-09-12T12:54:42.856Z</time>
      </trkpt>
      <trkpt lat="50.43531" lon="3.51812">
        <ele>36</ele>
        <time>2021-09-12T12:54:59.142Z</time>
      </trkpt>
      <trkpt lat="50.43505" lon="3.51808">
        <ele>36</ele>
        <time>2021-09-12T12:55:09.439Z</time>
      </trkpt>
      <trkpt lat="50.43462" lon="3.51802">
        <ele>36</ele>
        <time>2021-09-12T12:55:26.456Z</time>
      </trkpt>
      <trkpt lat="50.43433" lon="3.51801">
        <ele>36.3</ele>
        <time>2021-09-12T12:55:39.086Z</time>
      </trkpt>
      <trkpt lat="50.43393" lon="3.51789">
        <ele>36.9</ele>
        <time>2021-09-12T12:55:57.643Z</time>
      </trkpt>
      <trkpt lat="50.43359" lon="3.5179">
        <ele>37</ele>
        <time>2021-09-12T12:56:11.419Z</time>
      </trkpt>
      <trkpt lat="50.43336" lon="3.51786">
        <ele>37</ele>
        <time>2021-09-12T12:56:20.540Z</time>
      </trkpt>
      <trkpt lat="50.43305" lon="3.51783">
        <ele>37</ele>
        <time>2021-09-12T12:56:32.783Z</time>
      </trkpt>
      <trkpt lat="50.43283" lon="3.51781">
        <ele>37</ele>
        <time>2021-09-12T12:56:41.469Z</time>
      </trkpt>
      <trkpt lat="50.43226" lon="3.51775">
        <ele>37</ele>
        <time>2021-09-12T12:57:03.988Z</time>
      </trkpt>
      <trkpt lat="50.43197" lon="3.51768">
        <ele>37</ele>
        <time>2021-09-12T12:57:15.554Z</time>
      </trkpt>
      <trkpt lat="50.43161" lon="3.51766">
        <ele>37</ele>
        <time>2021-09-12T12:57:29.753Z</time>
      </trkpt>
      <trkpt lat="50.43133" lon="3.51765">
        <ele>37</ele>
        <time>2021-09-12T12:57:40.793Z</time>
      </trkpt>
      <trkpt lat="50.43084" lon="3.51759">
        <ele>37</ele>
        <time>2021-09-12T12:58:00.166Z</time>
      </trkpt>
      <trkpt lat="50.43042" lon="3.51755">
        <ele>37</ele>
        <time>2021-09-12T12:58:16.752Z</time>
      </trkpt>
      <trkpt lat="50.43003" lon="3.51752">
        <ele>37</ele>
        <time>2021-09-12T12:58:32.144Z</time>
      </trkpt>
      <trkpt lat="50.42973" lon="3.51746">
        <ele>37</ele>
        <time>2021-09-12T12:58:44.064Z</time>
      </trkpt>
      <trkpt lat="50.42935" lon="3.51739">
        <ele>37</ele>
        <time>2021-09-12T12:58:59.146Z</time>
      </trkpt>
      <trkpt lat="50.42893" lon="3.51729">
        <ele>37</ele>
        <time>2021-09-12T12:59:15.891Z</time>
      </trkpt>
      <trkpt lat="50.42827" lon="3.51721">
        <ele>37</ele>
        <time>2021-09-12T12:59:41.984Z</time>
      </trkpt>
      <trkpt lat="50.42802" lon="3.51723">
        <ele>37.1</ele>
        <time>2021-09-12T12:59:52.226Z</time>
      </trkpt>
      <trkpt lat="50.42827" lon="3.51766">
        <ele>37</ele>
        <time>2021-09-12T13:00:06.265Z</time>
      </trkpt>
      <trkpt lat="50.42857" lon="3.51819">
        <ele>37</ele>
        <time>2021-09-12T13:00:24.068Z</time>
      </trkpt>
      <trkpt lat="50.42872" lon="3.51839">
        <ele>37</ele>
        <time>2021-09-12T13:00:31.826Z</time>
      </trkpt>
      <trkpt lat="50.42895" lon="3.51879">
        <ele>37</ele>
        <time>2021-09-12T13:00:45.357Z</time>
      </trkpt>
      <trkpt lat="50.42917" lon="3.51913">
        <ele>37</ele>
        <time>2021-09-12T13:00:57.526Z</time>
      </trkpt>
      <trkpt lat="50.42944" lon="3.5195">
        <ele>37</ele>
        <time>2021-09-12T13:01:11.653Z</time>
      </trkpt>
      <trkpt lat="50.42946" lon="3.51951">
        <ele>37</ele>
        <time>2021-09-12T13:01:12.481Z</time>
      </trkpt>
      <trkpt lat="50.42922" lon="3.5192">
        <ele>37</ele>
        <time>2021-09-12T13:01:24.732Z</time>
      </trkpt>
      <trkpt lat="50.42894" lon="3.51865">
        <ele>37</ele>
        <time>2021-09-12T13:01:42.411Z</time>
      </trkpt>
      <trkpt lat="50.42872" lon="3.51838">
        <ele>37</ele>
        <time>2021-09-12T13:01:53.419Z</time>
      </trkpt>
      <trkpt lat="50.42861" lon="3.51827">
        <ele>37</ele>
        <time>2021-09-12T13:01:58.560Z</time>
      </trkpt>
      <trkpt lat="50.42838" lon="3.51783">
        <ele>37</ele>
        <time>2021-09-12T13:02:12.852Z</time>
      </trkpt>
      <trkpt lat="50.4282" lon="3.51755">
        <ele>37</ele>
        <time>2021-09-12T13:02:22.841Z</time>
      </trkpt>
      <trkpt lat="50.42797" lon="3.51769">
        <ele>37.1</ele>
        <time>2021-09-12T13:02:32.940Z</time>
      </trkpt>
      <trkpt lat="50.42785" lon="3.51815">
        <ele>37</ele>
        <time>2021-09-12T13:02:44.846Z</time>
      </trkpt>
      <trkpt lat="50.42774" lon="3.51849">
        <ele>36.9</ele>
        <time>2021-09-12T13:02:53.853Z</time>
      </trkpt>
      <trkpt lat="50.42758" lon="3.519">
        <ele>36</ele>
        <time>2021-09-12T13:03:00.385Z</time>
      </trkpt>
      <trkpt lat="50.42745" lon="3.51937">
        <ele>36</ele>
        <time>2021-09-12T13:03:10.996Z</time>
      </trkpt>
      <trkpt lat="50.42703" lon="3.52057">
        <ele>35</ele>
        <time>2021-09-12T13:03:29.472Z</time>
      </trkpt>
      <trkpt lat="50.42695" lon="3.52089">
        <ele>34</ele>
        <time>2021-09-12T13:03:32.680Z</time>
      </trkpt>
      <trkpt lat="50.42674" lon="3.52136">
        <ele>33.3</ele>
        <time>2021-09-12T13:03:39.723Z</time>
      </trkpt>
      <trkpt lat="50.42658" lon="3.52178">
        <ele>32.9</ele>
        <time>2021-09-12T13:03:46.211Z</time>
      </trkpt>
      <trkpt lat="50.4263" lon="3.52249">
        <ele>31.7</ele>
        <time>2021-09-12T13:03:56.056Z</time>
      </trkpt>
      <trkpt lat="50.42617" lon="3.52295">
        <ele>31.1</ele>
        <time>2021-09-12T13:04:02.260Z</time>
      </trkpt>
      <trkpt lat="50.42597" lon="3.52352">
        <ele>30.5</ele>
        <time>2021-09-12T13:04:10.710Z</time>
      </trkpt>
      <trkpt lat="50.4258" lon="3.52403">
        <ele>29.9</ele>
        <time>2021-09-12T13:04:18.012Z</time>
      </trkpt>
      <trkpt lat="50.42569" lon="3.52438">
        <ele>29.5</ele>
        <time>2021-09-12T13:04:22.979Z</time>
      </trkpt>
      <trkpt lat="50.4255" lon="3.52504">
        <ele>28.8</ele>
        <time>2021-09-12T13:04:32.302Z</time>
      </trkpt>
      <trkpt lat="50.42519" lon="3.52597">
        <ele>27.5</ele>
        <time>2021-09-12T13:04:45.133Z</time>
      </trkpt>
      <trkpt lat="50.42509" lon="3.52632">
        <ele>26.4</ele>
        <time>2021-09-12T13:04:48.734Z</time>
      </trkpt>
      <trkpt lat="50.42486" lon="3.52691">
        <ele>24.6</ele>
        <time>2021-09-12T13:04:55.484Z</time>
      </trkpt>
      <trkpt lat="50.42461" lon="3.52762">
        <ele>23.8</ele>
        <time>2021-09-12T13:05:05.887Z</time>
      </trkpt>
      <trkpt lat="50.42434" lon="3.52837">
        <ele>23</ele>
        <time>2021-09-12T13:05:17.059Z</time>
      </trkpt>
      <trkpt lat="50.42402" lon="3.52926">
        <ele>23</ele>
        <time>2021-09-12T13:05:42.724Z</time>
      </trkpt>
      <trkpt lat="50.42384" lon="3.52977">
        <ele>23</ele>
        <time>2021-09-12T13:05:57.365Z</time>
      </trkpt>
      <trkpt lat="50.42357" lon="3.53056">
        <ele>23</ele>
        <time>2021-09-12T13:06:19.879Z</time>
      </trkpt>
      <trkpt lat="50.42327" lon="3.53149">
        <ele>22.7</ele>
        <time>2021-09-12T13:06:44.363Z</time>
      </trkpt>
      <trkpt lat="50.42309" lon="3.53193">
        <ele>22.9</ele>
        <time>2021-09-12T13:06:58.259Z</time>
      </trkpt>
      <trkpt lat="50.42276" lon="3.53283">
        <ele>22.1</ele>
        <time>2021-09-12T13:07:12.159Z</time>
      </trkpt>
      <trkpt lat="50.42261" lon="3.53326">
        <ele>22.9</ele>
        <time>2021-09-12T13:07:28.245Z</time>
      </trkpt>
      <trkpt lat="50.42254" lon="3.53349">
        <ele>23</ele>
        <time>2021-09-12T13:07:35.029Z</time>
      </trkpt>
      <trkpt lat="50.4224" lon="3.53393">
        <ele>23</ele>
        <time>2021-09-12T13:07:47.380Z</time>
      </trkpt>
      <trkpt lat="50.42227" lon="3.53432">
        <ele>23</ele>
        <time>2021-09-12T13:07:58.434Z</time>
      </trkpt>
      <trkpt lat="50.42219" lon="3.53454">
        <ele>23.4</ele>
        <time>2021-09-12T13:08:06.664Z</time>
      </trkpt>
      <trkpt lat="50.42207" lon="3.53489">
        <ele>24.3</ele>
        <time>2021-09-12T13:08:21.464Z</time>
      </trkpt>
      <trkpt lat="50.42199" lon="3.53511">
        <ele>24.9</ele>
        <time>2021-09-12T13:08:31.111Z</time>
      </trkpt>
      <trkpt lat="50.42187" lon="3.53547">
        <ele>25.8</ele>
        <time>2021-09-12T13:08:46.083Z</time>
      </trkpt>
      <trkpt lat="50.42178" lon="3.53571">
        <ele>26</ele>
        <time>2021-09-12T13:08:53.882Z</time>
      </trkpt>
      <trkpt lat="50.42153" lon="3.53646">
        <ele>27</ele>
        <time>2021-09-12T13:09:19.489Z</time>
      </trkpt>
      <trkpt lat="50.42146" lon="3.53668">
        <ele>27</ele>
        <time>2021-09-12T13:09:25.665Z</time>
      </trkpt>
      <trkpt lat="50.42133" lon="3.53706">
        <ele>27</ele>
        <time>2021-09-12T13:09:36.497Z</time>
      </trkpt>
      <trkpt lat="50.42123" lon="3.53726">
        <ele>27</ele>
        <time>2021-09-12T13:09:42.882Z</time>
      </trkpt>
      <trkpt lat="50.42111" lon="3.53761">
        <ele>27</ele>
        <time>2021-09-12T13:09:52.864Z</time>
      </trkpt>
      <trkpt lat="50.42104" lon="3.53784">
        <ele>27</ele>
        <time>2021-09-12T13:09:59.266Z</time>
      </trkpt>
      <trkpt lat="50.4209" lon="3.5382">
        <ele>27</ele>
        <time>2021-09-12T13:10:09.858Z</time>
      </trkpt>
      <trkpt lat="50.42076" lon="3.53862">
        <ele>28</ele>
        <time>2021-09-12T13:10:26.945Z</time>
      </trkpt>
      <trkpt lat="50.42064" lon="3.53895">
        <ele>28</ele>
        <time>2021-09-12T13:10:36.488Z</time>
      </trkpt>
      <trkpt lat="50.42048" lon="3.53939">
        <ele>28.3</ele>
        <time>2021-09-12T13:10:50.395Z</time>
      </trkpt>
      <trkpt lat="50.42025" lon="3.54016">
        <ele>29</ele>
        <time>2021-09-12T13:11:14.620Z</time>
      </trkpt>
      <trkpt lat="50.4201" lon="3.54058">
        <ele>29</ele>
        <time>2021-09-12T13:11:26.713Z</time>
      </trkpt>
      <trkpt lat="50.42" lon="3.54082">
        <ele>29</ele>
        <time>2021-09-12T13:11:33.915Z</time>
      </trkpt>
      <trkpt lat="50.41986" lon="3.54121">
        <ele>30</ele>
        <time>2021-09-12T13:11:50.476Z</time>
      </trkpt>
      <trkpt lat="50.41983" lon="3.54146">
        <ele>30</ele>
        <time>2021-09-12T13:11:56.865Z</time>
      </trkpt>
      <trkpt lat="50.4198" lon="3.54179">
        <ele>30</ele>
        <time>2021-09-12T13:12:05.237Z</time>
      </trkpt>
      <trkpt lat="50.41972" lon="3.54203">
        <ele>30</ele>
        <time>2021-09-12T13:12:12.040Z</time>
      </trkpt>
      <trkpt lat="50.41957" lon="3.54244">
        <ele>30.5</ele>
        <time>2021-09-12T13:12:26.043Z</time>
      </trkpt>
      <trkpt lat="50.41944" lon="3.54286">
        <ele>31</ele>
        <time>2021-09-12T13:12:39.904Z</time>
      </trkpt>
      <trkpt lat="50.41935" lon="3.54309">
        <ele>31</ele>
        <time>2021-09-12T13:12:46.683Z</time>
      </trkpt>
      <trkpt lat="50.41906" lon="3.54391">
        <ele>31.4</ele>
        <time>2021-09-12T13:13:11.777Z</time>
      </trkpt>
      <trkpt lat="50.41887" lon="3.54446">
        <ele>31</ele>
        <time>2021-09-12T13:13:20.381Z</time>
      </trkpt>
      <trkpt lat="50.41876" lon="3.54487">
        <ele>31</ele>
        <time>2021-09-12T13:13:31.554Z</time>
      </trkpt>
      <trkpt lat="50.41877" lon="3.54464">
        <ele>31</ele>
        <time>2021-09-12T13:13:37.344Z</time>
      </trkpt>
      <trkpt lat="50.4185" lon="3.54438">
        <ele>30.6</ele>
        <time>2021-09-12T13:13:43.954Z</time>
      </trkpt>
      <trkpt lat="50.41837" lon="3.54435">
        <ele>30.1</ele>
        <time>2021-09-12T13:13:46.021Z</time>
      </trkpt>
      <trkpt lat="50.41806" lon="3.54397">
        <ele>30</ele>
        <time>2021-09-12T13:14:00.945Z</time>
      </trkpt>
      <trkpt lat="50.41787" lon="3.54374">
        <ele>30.7</ele>
        <time>2021-09-12T13:14:13.852Z</time>
      </trkpt>
      <trkpt lat="50.41755" lon="3.54342">
        <ele>31</ele>
        <time>2021-09-12T13:14:29.977Z</time>
      </trkpt>
      <trkpt lat="50.41729" lon="3.54313">
        <ele>31.8</ele>
        <time>2021-09-12T13:14:46.300Z</time>
      </trkpt>
      <trkpt lat="50.41682" lon="3.54316">
        <ele>33</ele>
        <time>2021-09-12T13:15:10.496Z</time>
      </trkpt>
      <trkpt lat="50.41657" lon="3.54301">
        <ele>32.9</ele>
        <time>2021-09-12T13:15:20.474Z</time>
      </trkpt>
      <trkpt lat="50.41625" lon="3.54282">
        <ele>33.7</ele>
        <time>2021-09-12T13:15:37.636Z</time>
      </trkpt>
      <trkpt lat="50.41609" lon="3.5427">
        <ele>35</ele>
        <time>2021-09-12T13:15:52.062Z</time>
      </trkpt>
      <trkpt lat="50.41593" lon="3.54248">
        <ele>38.3</ele>
        <time>2021-09-12T13:16:24.405Z</time>
      </trkpt>
      <trkpt lat="50.41573" lon="3.54233">
        <ele>39</ele>
        <time>2021-09-12T13:16:36.699Z</time>
      </trkpt>
      <trkpt lat="50.41557" lon="3.54229">
        <ele>39</ele>
        <time>2021-09-12T13:16:43.085Z</time>
      </trkpt>
      <trkpt lat="50.41534" lon="3.54247">
        <ele>39.6</ele>
        <time>2021-09-12T13:16:55.971Z</time>
      </trkpt>
      <trkpt lat="50.41525" lon="3.5426">
        <ele>40.4</ele>
        <time>2021-09-12T13:17:05.349Z</time>
      </trkpt>
      <trkpt lat="50.41538" lon="3.5423">
        <ele>38.7</ele>
        <time>2021-09-12T13:17:08.457Z</time>
      </trkpt>
      <trkpt lat="50.41499" lon="3.54145">
        <ele>35.2</ele>
        <time>2021-09-12T13:17:17.674Z</time>
      </trkpt>
      <trkpt lat="50.41488" lon="3.54079">
        <ele>35.1</ele>
        <time>2021-09-12T13:17:34.226Z</time>
      </trkpt>
      <trkpt lat="50.41479" lon="3.54038">
        <ele>34.5</ele>
        <time>2021-09-12T13:17:39.389Z</time>
      </trkpt>
      <trkpt lat="50.41443" lon="3.54076">
        <ele>31.9</ele>
        <time>2021-09-12T13:17:45.022Z</time>
      </trkpt>
      <trkpt lat="50.41436" lon="3.54134">
        <ele>36</ele>
        <time>2021-09-12T13:18:27.285Z</time>
      </trkpt>
      <trkpt lat="50.41449" lon="3.54167">
        <ele>37.5</ele>
        <time>2021-09-12T13:18:45.606Z</time>
      </trkpt>
      <trkpt lat="50.41456" lon="3.54218">
        <ele>40</ele>
        <time>2021-09-12T13:19:13.052Z</time>
      </trkpt>
      <trkpt lat="50.41449" lon="3.54234">
        <ele>41.2</ele>
        <time>2021-09-12T13:19:25.372Z</time>
      </trkpt>
      <trkpt lat="50.41416" lon="3.54225">
        <ele>41</ele>
        <time>2021-09-12T13:19:37.468Z</time>
      </trkpt>
      <trkpt lat="50.41404" lon="3.54253">
        <ele>40.9</ele>
        <time>2021-09-12T13:19:45.380Z</time>
      </trkpt>
      <trkpt lat="50.41407" lon="3.54371">
        <ele>41</ele>
        <time>2021-09-12T13:20:15.409Z</time>
      </trkpt>
      <trkpt lat="50.41421" lon="3.54424">
        <ele>40.6</ele>
        <time>2021-09-12T13:20:23.207Z</time>
      </trkpt>
      <trkpt lat="50.41411" lon="3.54437">
        <ele>39.6</ele>
        <time>2021-09-12T13:20:24.953Z</time>
      </trkpt>
      <trkpt lat="50.41397" lon="3.54401">
        <ele>40.4</ele>
        <time>2021-09-12T13:20:39.518Z</time>
      </trkpt>
      <trkpt lat="50.41381" lon="3.54388">
        <ele>40.7</ele>
        <time>2021-09-12T13:20:47.898Z</time>
      </trkpt>
      <trkpt lat="50.41378" lon="3.54404">
        <ele>39.7</ele>
        <time>2021-09-12T13:20:49.327Z</time>
      </trkpt>
      <trkpt lat="50.41386" lon="3.54385">
        <ele>40.9</ele>
        <time>2021-09-12T13:21:02.056Z</time>
      </trkpt>
      <trkpt lat="50.41378" lon="3.54401">
        <ele>39.9</ele>
        <time>2021-09-12T13:21:03.799Z</time>
      </trkpt>
      <trkpt lat="50.41394" lon="3.54389">
        <ele>41</ele>
        <time>2021-09-12T13:21:17.067Z</time>
      </trkpt>
      <trkpt lat="50.41421" lon="3.5443">
        <ele>40.4</ele>
        <time>2021-09-12T13:21:24.584Z</time>
      </trkpt>
      <trkpt lat="50.41393" lon="3.54356">
        <ele>40.9</ele>
        <time>2021-09-12T13:21:48.171Z</time>
      </trkpt>
      <trkpt lat="50.41362" lon="3.54367">
        <ele>40</ele>
        <time>2021-09-12T13:21:53.691Z</time>
      </trkpt>
      <trkpt lat="50.41355" lon="3.54439">
        <ele>39</ele>
        <time>2021-09-12T13:22:02.381Z</time>
      </trkpt>
      <trkpt lat="50.41341" lon="3.54474">
        <ele>37.3</ele>
        <time>2021-09-12T13:22:05.677Z</time>
      </trkpt>
      <trkpt lat="50.413" lon="3.54539">
        <ele>34</ele>
        <time>2021-09-12T13:22:13.449Z</time>
      </trkpt>
      <trkpt lat="50.41317" lon="3.54558">
        <ele>33.4</ele>
        <time>2021-09-12T13:22:17.057Z</time>
      </trkpt>
      <trkpt lat="50.41317" lon="3.54555">
        <ele>33.6</ele>
        <time>2021-09-12T13:22:19.109Z</time>
      </trkpt>
      <trkpt lat="50.41294" lon="3.5455">
        <ele>34</ele>
        <time>2021-09-12T13:22:29.977Z</time>
      </trkpt>
      <trkpt lat="50.41292" lon="3.54567">
        <ele>33.8</ele>
        <time>2021-09-12T13:22:32.123Z</time>
      </trkpt>
      <trkpt lat="50.41296" lon="3.54572">
        <ele>33.6</ele>
        <time>2021-09-12T13:22:32.919Z</time>
      </trkpt>
      <trkpt lat="50.41354" lon="3.54537">
        <ele>33.2</ele>
        <time>2021-09-12T13:22:55.215Z</time>
      </trkpt>
      <trkpt lat="50.41384" lon="3.54522">
        <ele>33.2</ele>
        <time>2021-09-12T13:23:07.626Z</time>
      </trkpt>
      <trkpt lat="50.41405" lon="3.54519">
        <ele>32.4</ele>
        <time>2021-09-12T13:23:10.947Z</time>
      </trkpt>
      <trkpt lat="50.41415" lon="3.54607">
        <ele>28</ele>
        <time>2021-09-12T13:23:18.607Z</time>
      </trkpt>
      <trkpt lat="50.41423" lon="3.54659">
        <ele>28</ele>
        <time>2021-09-12T13:23:32.044Z</time>
      </trkpt>
      <trkpt lat="50.41396" lon="3.54664">
        <ele>28</ele>
        <time>2021-09-12T13:23:42.760Z</time>
      </trkpt>
      <trkpt lat="50.41365" lon="3.54622">
        <ele>27.5</ele>
        <time>2021-09-12T13:23:51.352Z</time>
      </trkpt>
      <trkpt lat="50.41348" lon="3.54613">
        <ele>27</ele>
        <time>2021-09-12T13:23:54.483Z</time>
      </trkpt>
      <trkpt lat="50.41371" lon="3.54627">
        <ele>27.7</ele>
        <time>2021-09-12T13:24:07.622Z</time>
      </trkpt>
      <trkpt lat="50.41389" lon="3.54646">
        <ele>28</ele>
        <time>2021-09-12T13:24:17.413Z</time>
      </trkpt>
      <trkpt lat="50.41421" lon="3.54717">
        <ele>28</ele>
        <time>2021-09-12T13:24:39.257Z</time>
      </trkpt>
      <trkpt lat="50.4144" lon="3.54776">
        <ele>26.9</ele>
        <time>2021-09-12T13:24:46.750Z</time>
      </trkpt>
      <trkpt lat="50.41449" lon="3.54838">
        <ele>26.1</ele>
        <time>2021-09-12T13:24:54.497Z</time>
      </trkpt>
      <trkpt lat="50.41445" lon="3.54902">
        <ele>25.5</ele>
        <time>2021-09-12T13:25:02.832Z</time>
      </trkpt>
      <trkpt lat="50.41395" lon="3.54888">
        <ele>25.2</ele>
        <time>2021-09-12T13:25:21.191Z</time>
      </trkpt>
      <trkpt lat="50.41354" lon="3.54864">
        <ele>24.7</ele>
        <time>2021-09-12T13:25:30.465Z</time>
      </trkpt>
      <trkpt lat="50.41342" lon="3.5485">
        <ele>24.3</ele>
        <time>2021-09-12T13:25:33.106Z</time>
      </trkpt>
      <trkpt lat="50.4132" lon="3.54828">
        <ele>24.1</ele>
        <time>2021-09-12T13:25:38.920Z</time>
      </trkpt>
      <trkpt lat="50.41197" lon="3.54649">
        <ele>25.1</ele>
        <time>2021-09-12T13:26:48.863Z</time>
      </trkpt>
      <trkpt lat="50.41085" lon="3.54495">
        <ele>25</ele>
        <time>2021-09-12T13:27:46.964Z</time>
      </trkpt>
      <trkpt lat="50.41129" lon="3.54433">
        <ele>26.3</ele>
        <time>2021-09-12T13:28:16.151Z</time>
      </trkpt>
      <trkpt lat="50.41135" lon="3.54408">
        <ele>26.9</ele>
        <time>2021-09-12T13:28:26.061Z</time>
      </trkpt>
      <trkpt lat="50.41129" lon="3.54358">
        <ele>27.6</ele>
        <time>2021-09-12T13:28:41.992Z</time>
      </trkpt>
      <trkpt lat="50.41123" lon="3.54329">
        <ele>27.6</ele>
        <time>2021-09-12T13:28:49.651Z</time>
      </trkpt>
      <trkpt lat="50.41113" lon="3.54245">
        <ele>28.2</ele>
        <time>2021-09-12T13:29:13.526Z</time>
      </trkpt>
      <trkpt lat="50.41113" lon="3.5418">
        <ele>29</ele>
        <time>2021-09-12T13:29:33.364Z</time>
      </trkpt>
      <trkpt lat="50.41144" lon="3.54117">
        <ele>29</ele>
        <time>2021-09-12T13:29:53.358Z</time>
      </trkpt>
      <trkpt lat="50.41174" lon="3.54093">
        <ele>29.3</ele>
        <time>2021-09-12T13:30:07.811Z</time>
      </trkpt>
      <trkpt lat="50.41188" lon="3.54078">
        <ele>29.6</ele>
        <time>2021-09-12T13:30:15.786Z</time>
      </trkpt>
      <trkpt lat="50.41209" lon="3.54058">
        <ele>30.1</ele>
        <time>2021-09-12T13:30:27.688Z</time>
      </trkpt>
      <trkpt lat="50.41256" lon="3.54011">
        <ele>31.5</ele>
        <time>2021-09-12T13:30:56.222Z</time>
      </trkpt>
      <trkpt lat="50.41286" lon="3.53973">
        <ele>31.6</ele>
        <time>2021-09-12T13:31:11.788Z</time>
      </trkpt>
      <trkpt lat="50.41303" lon="3.5394">
        <ele>32.7</ele>
        <time>2021-09-12T13:31:28.778Z</time>
      </trkpt>
      <trkpt lat="50.41312" lon="3.53884">
        <ele>32.1</ele>
        <time>2021-09-12T13:31:36.111Z</time>
      </trkpt>
      <trkpt lat="50.41315" lon="3.53844">
        <ele>31.7</ele>
        <time>2021-09-12T13:31:41.271Z</time>
      </trkpt>
      <trkpt lat="50.41324" lon="3.53791">
        <ele>32.3</ele>
        <time>2021-09-12T13:31:57.619Z</time>
      </trkpt>
      <trkpt lat="50.4133" lon="3.53757">
        <ele>32</ele>
        <time>2021-09-12T13:32:02.267Z</time>
      </trkpt>
      <trkpt lat="50.41339" lon="3.53707">
        <ele>32.4</ele>
        <time>2021-09-12T13:32:16.942Z</time>
      </trkpt>
      <trkpt lat="50.41347" lon="3.5366">
        <ele>32.7</ele>
        <time>2021-09-12T13:32:30.350Z</time>
      </trkpt>
      <trkpt lat="50.41364" lon="3.53583">
        <ele>33.1</ele>
        <time>2021-09-12T13:32:52.373Z</time>
      </trkpt>
      <trkpt lat="50.41369" lon="3.5355">
        <ele>32.6</ele>
        <time>2021-09-12T13:32:56.348Z</time>
      </trkpt>
      <trkpt lat="50.41379" lon="3.53506">
        <ele>32.5</ele>
        <time>2021-09-12T13:33:07.507Z</time>
      </trkpt>
      <trkpt lat="50.41387" lon="3.53465">
        <ele>32.6</ele>
        <time>2021-09-12T13:33:18.651Z</time>
      </trkpt>
      <trkpt lat="50.41394" lon="3.53439">
        <ele>32.7</ele>
        <time>2021-09-12T13:33:26.122Z</time>
      </trkpt>
      <trkpt lat="50.414" lon="3.53399">
        <ele>33.6</ele>
        <time>2021-09-12T13:33:41.186Z</time>
      </trkpt>
      <trkpt lat="50.41402" lon="3.53373">
        <ele>33.6</ele>
        <time>2021-09-12T13:33:47.764Z</time>
      </trkpt>
      <trkpt lat="50.41362" lon="3.53343">
        <ele>31</ele>
        <time>2021-09-12T13:33:53.579Z</time>
      </trkpt>
      <trkpt lat="50.41335" lon="3.53325">
        <ele>30</ele>
        <time>2021-09-12T13:33:58.378Z</time>
      </trkpt>
      <trkpt lat="50.41297" lon="3.53292">
        <ele>29</ele>
        <time>2021-09-12T13:34:06.373Z</time>
      </trkpt>
      <trkpt lat="50.41245" lon="3.53245">
        <ele>30.2</ele>
        <time>2021-09-12T13:34:35.332Z</time>
      </trkpt>
      <trkpt lat="50.41212" lon="3.53217">
        <ele>31</ele>
        <time>2021-09-12T13:34:53.709Z</time>
      </trkpt>
      <trkpt lat="50.41194" lon="3.53202">
        <ele>31</ele>
        <time>2021-09-12T13:35:01.743Z</time>
      </trkpt>
      <trkpt lat="50.41187" lon="3.53158">
        <ele>32</ele>
        <time>2021-09-12T13:35:18.421Z</time>
      </trkpt>
      <trkpt lat="50.41196" lon="3.53119">
        <ele>32</ele>
        <time>2021-09-12T13:35:28.840Z</time>
      </trkpt>
      <trkpt lat="50.41204" lon="3.53066">
        <ele>33</ele>
        <time>2021-09-12T13:35:47.426Z</time>
      </trkpt>
      <trkpt lat="50.4121" lon="3.53019">
        <ele>33.3</ele>
        <time>2021-09-12T13:36:00.657Z</time>
      </trkpt>
      <trkpt lat="50.41213" lon="3.52988">
        <ele>34</ele>
        <time>2021-09-12T13:36:12.255Z</time>
      </trkpt>
      <trkpt lat="50.41214" lon="3.52933">
        <ele>34</ele>
        <time>2021-09-12T13:36:26.077Z</time>
      </trkpt>
      <trkpt lat="50.41214" lon="3.52902">
        <ele>34</ele>
        <time>2021-09-12T13:36:33.864Z</time>
      </trkpt>
      <trkpt lat="50.41213" lon="3.52806">
        <ele>35.7</ele>
        <time>2021-09-12T13:37:06.215Z</time>
      </trkpt>
      <trkpt lat="50.41214" lon="3.52749">
        <ele>36.7</ele>
        <time>2021-09-12T13:37:25.366Z</time>
      </trkpt>
      <trkpt lat="50.41234" lon="3.52698">
        <ele>37.9</ele>
        <time>2021-09-12T13:37:46.494Z</time>
      </trkpt>
      <trkpt lat="50.41246" lon="3.52675">
        <ele>38.6</ele>
        <time>2021-09-12T13:37:57.781Z</time>
      </trkpt>
      <trkpt lat="50.41253" lon="3.52645">
        <ele>40.8</ele>
        <time>2021-09-12T13:38:20.429Z</time>
      </trkpt>
      <trkpt lat="50.41247" lon="3.52627">
        <ele>41.6</ele>
        <time>2021-09-12T13:38:30.099Z</time>
      </trkpt>
      <trkpt lat="50.41237" lon="3.52602">
        <ele>42.8</ele>
        <time>2021-09-12T13:38:44.352Z</time>
      </trkpt>
      <trkpt lat="50.41244" lon="3.52584">
        <ele>46</ele>
        <time>2021-09-12T13:39:04.783Z</time>
      </trkpt>
      <trkpt lat="50.41252" lon="3.5262">
        <ele>42.6</ele>
        <time>2021-09-12T13:39:08.050Z</time>
      </trkpt>
      <trkpt lat="50.41258" lon="3.52655">
        <ele>40.4</ele>
        <time>2021-09-12T13:39:11.156Z</time>
      </trkpt>
      <trkpt lat="50.41293" lon="3.52678">
        <ele>40.8</ele>
        <time>2021-09-12T13:39:27.712Z</time>
      </trkpt>
      <trkpt lat="50.41316" lon="3.52684">
        <ele>40.6</ele>
        <time>2021-09-12T13:39:32.844Z</time>
      </trkpt>
      <trkpt lat="50.41357" lon="3.52674">
        <ele>40.3</ele>
        <time>2021-09-12T13:39:47.568Z</time>
      </trkpt>
      <trkpt lat="50.41392" lon="3.52648">
        <ele>38.6</ele>
        <time>2021-09-12T13:39:53.333Z</time>
      </trkpt>
      <trkpt lat="50.41409" lon="3.52627">
        <ele>38.6</ele>
        <time>2021-09-12T13:40:01.861Z</time>
      </trkpt>
      <trkpt lat="50.41415" lon="3.52593">
        <ele>40.8</ele>
        <time>2021-09-12T13:40:24.435Z</time>
      </trkpt>
      <trkpt lat="50.41413" lon="3.52576">
        <ele>43.2</ele>
        <time>2021-09-12T13:40:41.184Z</time>
      </trkpt>
      <trkpt lat="50.41418" lon="3.52549">
        <ele>45.7</ele>
        <time>2021-09-12T13:41:08.425Z</time>
      </trkpt>
      <trkpt lat="50.41419" lon="3.52531">
        <ele>48</ele>
        <time>2021-09-12T13:41:25.931Z</time>
      </trkpt>
      <trkpt lat="50.41427" lon="3.52503">
        <ele>50.8</ele>
        <time>2021-09-12T13:41:55.661Z</time>
      </trkpt>
      <trkpt lat="50.41446" lon="3.52455">
        <ele>52.5</ele>
        <time>2021-09-12T13:42:20.033Z</time>
      </trkpt>
      <trkpt lat="50.41455" lon="3.52428">
        <ele>54.5</ele>
        <time>2021-09-12T13:42:40.537Z</time>
      </trkpt>
      <trkpt lat="50.41463" lon="3.52418">
        <ele>53</ele>
        <time>2021-09-12T13:42:41.912Z</time>
      </trkpt>
      <trkpt lat="50.41472" lon="3.52388">
        <ele>54.2</ele>
        <time>2021-09-12T13:42:57.154Z</time>
      </trkpt>
      <trkpt lat="50.41477" lon="3.52355">
        <ele>56.3</ele>
        <time>2021-09-12T13:43:18.713Z</time>
      </trkpt>
      <trkpt lat="50.41474" lon="3.52335">
        <ele>59.1</ele>
        <time>2021-09-12T13:43:38.619Z</time>
      </trkpt>
      <trkpt lat="50.41475" lon="3.52297">
        <ele>58.6</ele>
        <time>2021-09-12T13:43:43.205Z</time>
      </trkpt>
      <trkpt lat="50.41466" lon="3.52279">
        <ele>62.2</ele>
        <time>2021-09-12T13:44:05.372Z</time>
      </trkpt>
      <trkpt lat="50.41461" lon="3.52257">
        <ele>63.6</ele>
        <time>2021-09-12T13:44:19.794Z</time>
      </trkpt>
      <trkpt lat="50.41454" lon="3.52242">
        <ele>66.1</ele>
        <time>2021-09-12T13:44:37.807Z</time>
      </trkpt>
      <trkpt lat="50.4143" lon="3.5221">
        <ele>73.5</ele>
        <time>2021-09-12T13:45:25.689Z</time>
      </trkpt>
      <trkpt lat="50.41417" lon="3.5221">
        <ele>78.4</ele>
        <time>2021-09-12T13:45:45.454Z</time>
      </trkpt>
      <trkpt lat="50.41399" lon="3.5221">
        <ele>81.7</ele>
        <time>2021-09-12T13:46:12.822Z</time>
      </trkpt>
      <trkpt lat="50.41387" lon="3.52205">
        <ele>83.6</ele>
        <time>2021-09-12T13:46:31.699Z</time>
      </trkpt>
      <trkpt lat="50.41388" lon="3.52154">
        <ele>85.5</ele>
        <time>2021-09-12T13:46:55.420Z</time>
      </trkpt>
      <trkpt lat="50.41392" lon="3.52123">
        <ele>86.1</ele>
        <time>2021-09-12T13:47:06.343Z</time>
      </trkpt>
      <trkpt lat="50.41385" lon="3.52096">
        <ele>87.1</ele>
        <time>2021-09-12T13:47:19.476Z</time>
      </trkpt>
      <trkpt lat="50.41375" lon="3.52067">
        <ele>87.5</ele>
        <time>2021-09-12T13:47:29.508Z</time>
      </trkpt>
      <trkpt lat="50.4137" lon="3.52041">
        <ele>87.7</ele>
        <time>2021-09-12T13:47:37.137Z</time>
      </trkpt>
      <trkpt lat="50.41362" lon="3.52">
        <ele>88.9</ele>
        <time>2021-09-12T13:47:55.156Z</time>
      </trkpt>
      <trkpt lat="50.41378" lon="3.51938">
        <ele>87.3</ele>
        <time>2021-09-12T13:48:01.896Z</time>
      </trkpt>
      <trkpt lat="50.41408" lon="3.51906">
        <ele>86.7</ele>
        <time>2021-09-12T13:48:09.103Z</time>
      </trkpt>
      <trkpt lat="50.41429" lon="3.51883">
        <ele>86.3</ele>
        <time>2021-09-12T13:48:14.248Z</time>
      </trkpt>
      <trkpt lat="50.41444" lon="3.51835">
        <ele>86</ele>
        <time>2021-09-12T13:48:21.723Z</time>
      </trkpt>
      <trkpt lat="50.41446" lon="3.51802">
        <ele>86.9</ele>
        <time>2021-09-12T13:48:35.379Z</time>
      </trkpt>
      <trkpt lat="50.41472" lon="3.51775">
        <ele>86.1</ele>
        <time>2021-09-12T13:48:40.952Z</time>
      </trkpt>
      <trkpt lat="50.41491" lon="3.51747">
        <ele>83.7</ele>
        <time>2021-09-12T13:48:44.457Z</time>
      </trkpt>
      <trkpt lat="50.41504" lon="3.51748">
        <ele>79.9</ele>
        <time>2021-09-12T13:48:46.208Z</time>
      </trkpt>
      <trkpt lat="50.4149" lon="3.51773">
        <ele>81.9</ele>
        <time>2021-09-12T13:49:06.804Z</time>
      </trkpt>
      <trkpt lat="50.4146" lon="3.51782">
        <ele>86.6</ele>
        <time>2021-09-12T13:49:53.242Z</time>
      </trkpt>
      <trkpt lat="50.4147" lon="3.5181">
        <ele>82.7</ele>
        <time>2021-09-12T13:49:55.992Z</time>
      </trkpt>
      <trkpt lat="50.41505" lon="3.51799">
        <ele>73.3</ele>
        <time>2021-09-12T13:50:00.793Z</time>
      </trkpt>
      <trkpt lat="50.41493" lon="3.51822">
        <ele>72.9</ele>
        <time>2021-09-12T13:50:04.357Z</time>
      </trkpt>
      <trkpt lat="50.41489" lon="3.51847">
        <ele>68.4</ele>
        <time>2021-09-12T13:50:06.565Z</time>
      </trkpt>
      <trkpt lat="50.41545" lon="3.51871">
        <ele>41.5</ele>
        <time>2021-09-12T13:50:14.372Z</time>
      </trkpt>
      <trkpt lat="50.41594" lon="3.51857">
        <ele>43.8</ele>
        <time>2021-09-12T13:50:47.862Z</time>
      </trkpt>
      <trkpt lat="50.41715" lon="3.5153">
        <ele>32.6</ele>
        <time>2021-09-12T13:51:22.906Z</time>
      </trkpt>
      <trkpt lat="50.41643" lon="3.51321">
        <ele>28.1</ele>
        <time>2021-09-12T13:51:48.810Z</time>
      </trkpt>
      <trkpt lat="50.40895" lon="3.5058">
        <ele>25.3</ele>
        <time>2021-09-12T13:57:21.364Z</time>
      </trkpt>
      <trkpt lat="50.40848" lon="3.50473">
        <ele>26.5</ele>
        <time>2021-09-12T13:57:59.005Z</time>
      </trkpt>
      <trkpt lat="50.40616" lon="3.5001">
        <ele>23.4</ele>
        <time>2021-09-12T13:59:21.982Z</time>
      </trkpt>
      <trkpt lat="50.40628" lon="3.49976">
        <ele>27.2</ele>
        <time>2021-09-12T13:59:59.643Z</time>
      </trkpt>
      <trkpt lat="50.4069" lon="3.50028">
        <ele>43.2</ele>
        <time>2021-09-12T14:01:46.530Z</time>
      </trkpt>
      <trkpt lat="50.40705" lon="3.50083">
        <ele>43.8</ele>
        <time>2021-09-12T14:02:04.090Z</time>
      </trkpt>
      <trkpt lat="50.40718" lon="3.50059">
        <ele>51.9</ele>
        <time>2021-09-12T14:02:34.611Z</time>
      </trkpt>
      <trkpt lat="50.40727" lon="3.50005">
        <ele>61.7</ele>
        <time>2021-09-12T14:03:28.696Z</time>
      </trkpt>
      <trkpt lat="50.40751" lon="3.50065">
        <ele>64.6</ele>
        <time>2021-09-12T14:04:03.014Z</time>
      </trkpt>
      <trkpt lat="50.40768" lon="3.50005">
        <ele>79.8</ele>
        <time>2021-09-12T14:05:06.640Z</time>
      </trkpt>
      <trkpt lat="50.40777" lon="3.50012">
        <ele>82.9</ele>
        <time>2021-09-12T14:05:21.912Z</time>
      </trkpt>
      <trkpt lat="50.40807" lon="3.50028">
        <ele>87.6</ele>
        <time>2021-09-12T14:06:10.087Z</time>
      </trkpt>
      <trkpt lat="50.40811" lon="3.49996">
        <ele>90.9</ele>
        <time>2021-09-12T14:06:41.685Z</time>
      </trkpt>
      <trkpt lat="50.40819" lon="3.50016">
        <ele>86.8</ele>
        <time>2021-09-12T14:06:43.709Z</time>
      </trkpt>
      <trkpt lat="50.40832" lon="3.50002">
        <ele>86</ele>
        <time>2021-09-12T14:06:45.918Z</time>
      </trkpt>
      <trkpt lat="50.40848" lon="3.50008">
        <ele>78.7</ele>
        <time>2021-09-12T14:06:48.131Z</time>
      </trkpt>
      <trkpt lat="50.40854" lon="3.5004">
        <ele>71.8</ele>
        <time>2021-09-12T14:06:50.989Z</time>
      </trkpt>
      <trkpt lat="50.40893" lon="3.50005">
        <ele>62.3</ele>
        <time>2021-09-12T14:06:57.031Z</time>
      </trkpt>
      <trkpt lat="50.40907" lon="3.50016">
        <ele>57.4</ele>
        <time>2021-09-12T14:06:59.136Z</time>
      </trkpt>
      <trkpt lat="50.40922" lon="3.5004">
        <ele>50.6</ele>
        <time>2021-09-12T14:07:02.017Z</time>
      </trkpt>
      <trkpt lat="50.40943" lon="3.49932">
        <ele>43</ele>
        <time>2021-09-12T14:07:11.694Z</time>
      </trkpt>
      <trkpt lat="50.40952" lon="3.49868">
        <ele>37.3</ele>
        <time>2021-09-12T14:07:17.311Z</time>
      </trkpt>
      <trkpt lat="50.40999" lon="3.49657">
        <ele>28.8</ele>
        <time>2021-09-12T14:07:35.842Z</time>
      </trkpt>
      <trkpt lat="50.41029" lon="3.49673">
        <ele>28</ele>
        <time>2021-09-12T14:07:41.531Z</time>
      </trkpt>
      <trkpt lat="50.41042" lon="3.49636">
        <ele>23.8</ele>
        <time>2021-09-12T14:07:45.152Z</time>
      </trkpt>
      <trkpt lat="50.41052" lon="3.4955">
        <ele>21</ele>
        <time>2021-09-12T14:07:52.990Z</time>
      </trkpt>
      <trkpt lat="50.41053" lon="3.4945">
        <ele>21</ele>
        <time>2021-09-12T14:08:18.114Z</time>
      </trkpt>
      <trkpt lat="50.41051" lon="3.49421">
        <ele>21</ele>
        <time>2021-09-12T14:08:25.441Z</time>
      </trkpt>
      <trkpt lat="50.41008" lon="3.49394">
        <ele>21</ele>
        <time>2021-09-12T14:08:43.697Z</time>
      </trkpt>
      <trkpt lat="50.40975" lon="3.49366">
        <ele>21</ele>
        <time>2021-09-12T14:08:58.485Z</time>
      </trkpt>
      <trkpt lat="50.40933" lon="3.49342">
        <ele>21</ele>
        <time>2021-09-12T14:09:16.104Z</time>
      </trkpt>
      <trkpt lat="50.40903" lon="3.4931">
        <ele>21</ele>
        <time>2021-09-12T14:09:30.403Z</time>
      </trkpt>
      <trkpt lat="50.40833" lon="3.49259">
        <ele>21</ele>
        <time>2021-09-12T14:10:00.825Z</time>
      </trkpt>
      <trkpt lat="50.40809" lon="3.4924">
        <ele>21</ele>
        <time>2021-09-12T14:10:11.421Z</time>
      </trkpt>
      <trkpt lat="50.40773" lon="3.4921">
        <ele>21</ele>
        <time>2021-09-12T14:10:27.489Z</time>
      </trkpt>
      <trkpt lat="50.4075" lon="3.49192">
        <ele>21</ele>
        <time>2021-09-12T14:10:37.620Z</time>
      </trkpt>
      <trkpt lat="50.40722" lon="3.49168">
        <ele>21</ele>
        <time>2021-09-12T14:10:50.197Z</time>
      </trkpt>
      <trkpt lat="50.4069" lon="3.49142">
        <ele>20</ele>
        <time>2021-09-12T14:10:56.494Z</time>
      </trkpt>
      <trkpt lat="50.40668" lon="3.49126">
        <ele>20</ele>
        <time>2021-09-12T14:11:06.052Z</time>
      </trkpt>
      <trkpt lat="50.4064" lon="3.49104">
        <ele>20</ele>
        <time>2021-09-12T14:11:18.395Z</time>
      </trkpt>
      <trkpt lat="50.4062" lon="3.49091">
        <ele>20</ele>
        <time>2021-09-12T14:11:26.929Z</time>
      </trkpt>
      <trkpt lat="50.40589" lon="3.4907">
        <ele>20</ele>
        <time>2021-09-12T14:11:40.238Z</time>
      </trkpt>
      <trkpt lat="50.40547" lon="3.49043">
        <ele>20</ele>
        <time>2021-09-12T14:11:58.130Z</time>
      </trkpt>
      <trkpt lat="50.40525" lon="3.49025">
        <ele>20</ele>
        <time>2021-09-12T14:12:07.910Z</time>
      </trkpt>
      <trkpt lat="50.4051" lon="3.49014">
        <ele>20</ele>
        <time>2021-09-12T14:12:14.436Z</time>
      </trkpt>
      <trkpt lat="50.40492" lon="3.48997">
        <ele>20</ele>
        <time>2021-09-12T14:12:22.718Z</time>
      </trkpt>
      <trkpt lat="50.40472" lon="3.48984">
        <ele>20</ele>
        <time>2021-09-12T14:12:31.251Z</time>
      </trkpt>
      <trkpt lat="50.40444" lon="3.48961">
        <ele>20</ele>
        <time>2021-09-12T14:12:43.709Z</time>
      </trkpt>
      <trkpt lat="50.40424" lon="3.48939">
        <ele>20</ele>
        <time>2021-09-12T14:12:53.337Z</time>
      </trkpt>
      <trkpt lat="50.40406" lon="3.48927">
        <ele>20</ele>
        <time>2021-09-12T14:13:01.047Z</time>
      </trkpt>
      <trkpt lat="50.40381" lon="3.4891">
        <ele>20</ele>
        <time>2021-09-12T14:13:11.787Z</time>
      </trkpt>
      <trkpt lat="50.40396" lon="3.48902">
        <ele>20</ele>
        <time>2021-09-12T14:13:18.032Z</time>
      </trkpt>
      <trkpt lat="50.40435" lon="3.48812">
        <ele>20</ele>
        <time>2021-09-12T14:13:45.374Z</time>
      </trkpt>
      <trkpt lat="50.40461" lon="3.48763">
        <ele>20</ele>
        <time>2021-09-12T14:14:01.392Z</time>
      </trkpt>
      <trkpt lat="50.4047" lon="3.48727">
        <ele>20</ele>
        <time>2021-09-12T14:14:11.108Z</time>
      </trkpt>
      <trkpt lat="50.40475" lon="3.487">
        <ele>20</ele>
        <time>2021-09-12T14:14:18.171Z</time>
      </trkpt>
      <trkpt lat="50.40492" lon="3.48669">
        <ele>20</ele>
        <time>2021-09-12T14:14:28.446Z</time>
      </trkpt>
      <trkpt lat="50.40506" lon="3.48658">
        <ele>20</ele>
        <time>2021-09-12T14:14:34.618Z</time>
      </trkpt>
      <trkpt lat="50.40529" lon="3.48631">
        <ele>20</ele>
        <time>2021-09-12T14:14:45.940Z</time>
      </trkpt>
      <trkpt lat="50.40543" lon="3.48599">
        <ele>20</ele>
        <time>2021-09-12T14:14:55.692Z</time>
      </trkpt>
      <trkpt lat="50.40566" lon="3.4854">
        <ele>20</ele>
        <time>2021-09-12T14:15:13.067Z</time>
      </trkpt>
      <trkpt lat="50.40588" lon="3.4849">
        <ele>20</ele>
        <time>2021-09-12T14:15:28.331Z</time>
      </trkpt>
      <trkpt lat="50.40613" lon="3.48439">
        <ele>20</ele>
        <time>2021-09-12T14:15:44.495Z</time>
      </trkpt>
      <trkpt lat="50.40622" lon="3.48421">
        <ele>20</ele>
        <time>2021-09-12T14:15:50.242Z</time>
      </trkpt>
      <trkpt lat="50.40635" lon="3.48392">
        <ele>20</ele>
        <time>2021-09-12T14:15:59.150Z</time>
      </trkpt>
      <trkpt lat="50.40648" lon="3.48352">
        <ele>20</ele>
        <time>2021-09-12T14:16:10.430Z</time>
      </trkpt>
      <trkpt lat="50.4066" lon="3.48329">
        <ele>20</ele>
        <time>2021-09-12T14:16:17.897Z</time>
      </trkpt>
      <trkpt lat="50.40677" lon="3.48294">
        <ele>20.6</ele>
        <time>2021-09-12T14:16:31.647Z</time>
      </trkpt>
      <trkpt lat="50.40686" lon="3.48275">
        <ele>21</ele>
        <time>2021-09-12T14:16:39.501Z</time>
      </trkpt>
      <trkpt lat="50.407" lon="3.48241">
        <ele>21</ele>
        <time>2021-09-12T14:16:49.670Z</time>
      </trkpt>
      <trkpt lat="50.40709" lon="3.48219">
        <ele>21</ele>
        <time>2021-09-12T14:16:56.238Z</time>
      </trkpt>
      <trkpt lat="50.40724" lon="3.48182">
        <ele>21</ele>
        <time>2021-09-12T14:17:07.254Z</time>
      </trkpt>
      <trkpt lat="50.40753" lon="3.48123">
        <ele>22</ele>
        <time>2021-09-12T14:17:30.446Z</time>
      </trkpt>
      <trkpt lat="50.40769" lon="3.4809">
        <ele>22</ele>
        <time>2021-09-12T14:17:40.862Z</time>
      </trkpt>
      <trkpt lat="50.40777" lon="3.4807">
        <ele>22</ele>
        <time>2021-09-12T14:17:46.794Z</time>
      </trkpt>
      <trkpt lat="50.40792" lon="3.48035">
        <ele>22</ele>
        <time>2021-09-12T14:17:57.390Z</time>
      </trkpt>
      <trkpt lat="50.40804" lon="3.48013">
        <ele>22</ele>
        <time>2021-09-12T14:18:04.665Z</time>
      </trkpt>
      <trkpt lat="50.40822" lon="3.47979">
        <ele>22</ele>
        <time>2021-09-12T14:18:15.769Z</time>
      </trkpt>
      <trkpt lat="50.40833" lon="3.47946">
        <ele>22</ele>
        <time>2021-09-12T14:18:25.124Z</time>
      </trkpt>
      <trkpt lat="50.40843" lon="3.47924">
        <ele>22</ele>
        <time>2021-09-12T14:18:31.912Z</time>
      </trkpt>
      <trkpt lat="50.40857" lon="3.47893">
        <ele>22</ele>
        <time>2021-09-12T14:18:41.457Z</time>
      </trkpt>
      <trkpt lat="50.40865" lon="3.4787">
        <ele>22</ele>
        <time>2021-09-12T14:18:48.040Z</time>
      </trkpt>
      <trkpt lat="50.40903" lon="3.47814">
        <ele>22</ele>
        <time>2021-09-12T14:19:08.589Z</time>
      </trkpt>
      <trkpt lat="50.40911" lon="3.47796">
        <ele>22</ele>
        <time>2021-09-12T14:19:14.102Z</time>
      </trkpt>
      <trkpt lat="50.40902" lon="3.47758">
        <ele>22</ele>
        <time>2021-09-12T14:19:24.285Z</time>
      </trkpt>
      <trkpt lat="50.40892" lon="3.47732">
        <ele>22.6</ele>
        <time>2021-09-12T14:19:34.940Z</time>
      </trkpt>
      <trkpt lat="50.40879" lon="3.47695">
        <ele>23</ele>
        <time>2021-09-12T14:19:47.225Z</time>
      </trkpt>
      <trkpt lat="50.40868" lon="3.47676">
        <ele>23</ele>
        <time>2021-09-12T14:19:53.674Z</time>
      </trkpt>
      <trkpt lat="50.40851" lon="3.47637">
        <ele>23</ele>
        <time>2021-09-12T14:20:05.543Z</time>
      </trkpt>
      <trkpt lat="50.40837" lon="3.47601">
        <ele>23</ele>
        <time>2021-09-12T14:20:16.138Z</time>
      </trkpt>
      <trkpt lat="50.40827" lon="3.47584">
        <ele>23</ele>
        <time>2021-09-12T14:20:21.950Z</time>
      </trkpt>
      <trkpt lat="50.40812" lon="3.47553">
        <ele>23</ele>
        <time>2021-09-12T14:20:31.728Z</time>
      </trkpt>
      <trkpt lat="50.40792" lon="3.47503">
        <ele>22.6</ele>
        <time>2021-09-12T14:20:39.784Z</time>
      </trkpt>
      <trkpt lat="50.40784" lon="3.47485">
        <ele>22.1</ele>
        <time>2021-09-12T14:20:42.034Z</time>
      </trkpt>
      <trkpt lat="50.40771" lon="3.47452">
        <ele>21.2</ele>
        <time>2021-09-12T14:20:45.987Z</time>
      </trkpt>
      <trkpt lat="50.40754" lon="3.47405">
        <ele>20.1</ele>
        <time>2021-09-12T14:20:51.746Z</time>
      </trkpt>
      <trkpt lat="50.40741" lon="3.47373">
        <ele>20</ele>
        <time>2021-09-12T14:21:00.711Z</time>
      </trkpt>
      <trkpt lat="50.40731" lon="3.47317">
        <ele>20</ele>
        <time>2021-09-12T14:21:15.322Z</time>
      </trkpt>
      <trkpt lat="50.40722" lon="3.47276">
        <ele>19</ele>
        <time>2021-09-12T14:21:19.749Z</time>
      </trkpt>
      <trkpt lat="50.4071" lon="3.47209">
        <ele>19</ele>
        <time>2021-09-12T14:21:37.233Z</time>
      </trkpt>
      <trkpt lat="50.40698" lon="3.47127">
        <ele>18</ele>
        <time>2021-09-12T14:21:47.619Z</time>
      </trkpt>
      <trkpt lat="50.4068" lon="3.47075">
        <ele>18</ele>
        <time>2021-09-12T14:22:02.485Z</time>
      </trkpt>
      <trkpt lat="50.40667" lon="3.46957">
        <ele>18.5</ele>
        <time>2021-09-12T14:22:34.489Z</time>
      </trkpt>
      <trkpt lat="50.40654" lon="3.46893">
        <ele>19</ele>
        <time>2021-09-12T14:22:53.386Z</time>
      </trkpt>
      <trkpt lat="50.40646" lon="3.46855">
        <ele>19</ele>
        <time>2021-09-12T14:23:03.440Z</time>
      </trkpt>
      <trkpt lat="50.40637" lon="3.46804">
        <ele>18.9</ele>
        <time>2021-09-12T14:23:16.157Z</time>
      </trkpt>
      <trkpt lat="50.40628" lon="3.46756">
        <ele>18</ele>
        <time>2021-09-12T14:23:21.700Z</time>
      </trkpt>
      <trkpt lat="50.40624" lon="3.46732">
        <ele>18</ele>
        <time>2021-09-12T14:23:27.933Z</time>
      </trkpt>
      <trkpt lat="50.40607" lon="3.46702">
        <ele>18</ele>
        <time>2021-09-12T14:23:38.018Z</time>
      </trkpt>
      <trkpt lat="50.40591" lon="3.46722">
        <ele>18</ele>
        <time>2021-09-12T14:23:46.081Z</time>
      </trkpt>
      <trkpt lat="50.40563" lon="3.46751">
        <ele>18</ele>
        <time>2021-09-12T14:23:59.306Z</time>
      </trkpt>
      <trkpt lat="50.40543" lon="3.46761">
        <ele>18</ele>
        <time>2021-09-12T14:24:07.580Z</time>
      </trkpt>
      <trkpt lat="50.40488" lon="3.46787">
        <ele>18.8</ele>
        <time>2021-09-12T14:24:33.534Z</time>
      </trkpt>
      <trkpt lat="50.40471" lon="3.46794">
        <ele>19</ele>
        <time>2021-09-12T14:24:41.268Z</time>
      </trkpt>
      <trkpt lat="50.40433" lon="3.46796">
        <ele>19</ele>
        <time>2021-09-12T14:24:56.255Z</time>
      </trkpt>
      <trkpt lat="50.40411" lon="3.468">
        <ele>19</ele>
        <time>2021-09-12T14:25:04.985Z</time>
      </trkpt>
      <trkpt lat="50.40378" lon="3.46809">
        <ele>19</ele>
        <time>2021-09-12T14:25:18.188Z</time>
      </trkpt>
      <trkpt lat="50.40363" lon="3.46805">
        <ele>19</ele>
        <time>2021-09-12T14:25:24.185Z</time>
      </trkpt>
      <trkpt lat="50.4034" lon="3.46805">
        <ele>19</ele>
        <time>2021-09-12T14:25:33.251Z</time>
      </trkpt>
      <trkpt lat="50.4031" lon="3.46797">
        <ele>19.8</ele>
        <time>2021-09-12T14:25:49.051Z</time>
      </trkpt>
      <trkpt lat="50.4029" lon="3.46794">
        <ele>20</ele>
        <time>2021-09-12T14:25:57.765Z</time>
      </trkpt>
      <trkpt lat="50.40262" lon="3.46783">
        <ele>20.1</ele>
        <time>2021-09-12T14:26:09.516Z</time>
      </trkpt>
      <trkpt lat="50.40241" lon="3.46718">
        <ele>20</ele>
        <time>2021-09-12T14:26:27.240Z</time>
      </trkpt>
      <trkpt lat="50.40234" lon="3.46671">
        <ele>20.4</ele>
        <time>2021-09-12T14:26:41.006Z</time>
      </trkpt>
      <trkpt lat="50.40218" lon="3.46661">
        <ele>20.3</ele>
        <time>2021-09-12T14:26:47.241Z</time>
      </trkpt>
      <trkpt lat="50.40187" lon="3.46641">
        <ele>21</ele>
        <time>2021-09-12T14:27:03.578Z</time>
      </trkpt>
      <trkpt lat="50.40165" lon="3.4663">
        <ele>21</ele>
        <time>2021-09-12T14:27:12.680Z</time>
      </trkpt>
      <trkpt lat="50.40132" lon="3.4661">
        <ele>21.2</ele>
        <time>2021-09-12T14:27:27.386Z</time>
      </trkpt>
      <trkpt lat="50.40112" lon="3.46595">
        <ele>22</ele>
        <time>2021-09-12T14:27:40.439Z</time>
      </trkpt>
      <trkpt lat="50.40086" lon="3.46575">
        <ele>22</ele>
        <time>2021-09-12T14:27:51.853Z</time>
      </trkpt>
      <trkpt lat="50.40058" lon="3.46554">
        <ele>22</ele>
        <time>2021-09-12T14:28:04.087Z</time>
      </trkpt>
      <trkpt lat="50.40037" lon="3.46543">
        <ele>22</ele>
        <time>2021-09-12T14:28:12.814Z</time>
      </trkpt>
      <trkpt lat="50.40008" lon="3.46473">
        <ele>22</ele>
        <time>2021-09-12T14:28:33.790Z</time>
      </trkpt>
      <trkpt lat="50.39997" lon="3.46423">
        <ele>22.9</ele>
        <time>2021-09-12T14:28:51.382Z</time>
      </trkpt>
      <trkpt lat="50.39989" lon="3.46381">
        <ele>22</ele>
        <time>2021-09-12T14:28:56.040Z</time>
      </trkpt>
      <trkpt lat="50.40013" lon="3.46329">
        <ele>22</ele>
        <time>2021-09-12T14:29:12.171Z</time>
      </trkpt>
      <trkpt lat="50.40011" lon="3.46271">
        <ele>22</ele>
        <time>2021-09-12T14:29:26.766Z</time>
      </trkpt>
      <trkpt lat="50.39999" lon="3.46258">
        <ele>22</ele>
        <time>2021-09-12T14:29:32.514Z</time>
      </trkpt>
      <trkpt lat="50.39972" lon="3.4623">
        <ele>21</ele>
        <time>2021-09-12T14:29:37.984Z</time>
      </trkpt>
      <trkpt lat="50.39936" lon="3.46216">
        <ele>20.7</ele>
        <time>2021-09-12T14:29:46.202Z</time>
      </trkpt>
      <trkpt lat="50.39896" lon="3.46208">
        <ele>20</ele>
        <time>2021-09-12T14:29:54.134Z</time>
      </trkpt>
      <trkpt lat="50.39902" lon="3.46161">
        <ele>20</ele>
        <time>2021-09-12T14:30:06.178Z</time>
      </trkpt>
      <trkpt lat="50.39923" lon="3.46104">
        <ele>20.4</ele>
        <time>2021-09-12T14:30:24.303Z</time>
      </trkpt>
      <trkpt lat="50.39938" lon="3.46068">
        <ele>21</ele>
        <time>2021-09-12T14:30:37.819Z</time>
      </trkpt>
      <trkpt lat="50.39948" lon="3.46023">
        <ele>21</ele>
        <time>2021-09-12T14:30:49.793Z</time>
      </trkpt>
      <trkpt lat="50.39956" lon="3.46005">
        <ele>21.3</ele>
        <time>2021-09-12T14:30:56.654Z</time>
      </trkpt>
      <trkpt lat="50.39965" lon="3.45974">
        <ele>21.7</ele>
        <time>2021-09-12T14:31:06.951Z</time>
      </trkpt>
      <trkpt lat="50.39972" lon="3.45947">
        <ele>22</ele>
        <time>2021-09-12T14:31:15.546Z</time>
      </trkpt>
      <trkpt lat="50.39974" lon="3.45927">
        <ele>22</ele>
        <time>2021-09-12T14:31:20.632Z</time>
      </trkpt>
      <trkpt lat="50.39979" lon="3.45898">
        <ele>22.2</ele>
        <time>2021-09-12T14:31:28.979Z</time>
      </trkpt>
      <trkpt lat="50.39981" lon="3.45877">
        <ele>22.6</ele>
        <time>2021-09-12T14:31:36.295Z</time>
      </trkpt>
      <trkpt lat="50.39983" lon="3.4585">
        <ele>23</ele>
        <time>2021-09-12T14:31:44.956Z</time>
      </trkpt>
      <trkpt lat="50.39976" lon="3.45792">
        <ele>23</ele>
        <time>2021-09-12T14:31:59.788Z</time>
      </trkpt>
      <trkpt lat="50.39977" lon="3.45764">
        <ele>23</ele>
        <time>2021-09-12T14:32:06.834Z</time>
      </trkpt>
      <trkpt lat="50.39975" lon="3.45748">
        <ele>23</ele>
        <time>2021-09-12T14:32:10.931Z</time>
      </trkpt>
      <trkpt lat="50.39972" lon="3.45719">
        <ele>23</ele>
        <time>2021-09-12T14:32:18.313Z</time>
      </trkpt>
      <trkpt lat="50.39969" lon="3.457">
        <ele>23</ele>
        <time>2021-09-12T14:32:23.231Z</time>
      </trkpt>
      <trkpt lat="50.39965" lon="3.45672">
        <ele>23</ele>
        <time>2021-09-12T14:32:30.441Z</time>
      </trkpt>
      <trkpt lat="50.39959" lon="3.45646">
        <ele>22.3</ele>
        <time>2021-09-12T14:32:33.170Z</time>
      </trkpt>
      <trkpt lat="50.39955" lon="3.45627">
        <ele>22</ele>
        <time>2021-09-12T14:32:35.504Z</time>
      </trkpt>
      <trkpt lat="50.39946" lon="3.45595">
        <ele>22</ele>
        <time>2021-09-12T14:32:44.293Z</time>
      </trkpt>
      <trkpt lat="50.39939" lon="3.45566">
        <ele>21.4</ele>
        <time>2021-09-12T14:32:47.652Z</time>
      </trkpt>
      <trkpt lat="50.39928" lon="3.455">
        <ele>21</ele>
        <time>2021-09-12T14:32:57.144Z</time>
      </trkpt>
      <trkpt lat="50.3992" lon="3.45457">
        <ele>21</ele>
        <time>2021-09-12T14:33:08.399Z</time>
      </trkpt>
      <trkpt lat="50.39914" lon="3.45427">
        <ele>21.6</ele>
        <time>2021-09-12T14:33:19.284Z</time>
      </trkpt>
      <trkpt lat="50.39907" lon="3.45409">
        <ele>21.7</ele>
        <time>2021-09-12T14:33:24.969Z</time>
      </trkpt>
      <trkpt lat="50.39904" lon="3.45371">
        <ele>22</ele>
        <time>2021-09-12T14:33:35.811Z</time>
      </trkpt>
      <trkpt lat="50.39899" lon="3.45346">
        <ele>22</ele>
        <time>2021-09-12T14:33:42.394Z</time>
      </trkpt>
      <trkpt lat="50.39888" lon="3.45311">
        <ele>22.8</ele>
        <time>2021-09-12T14:33:56.294Z</time>
      </trkpt>
      <trkpt lat="50.39876" lon="3.45295">
        <ele>23</ele>
        <time>2021-09-12T14:34:03.319Z</time>
      </trkpt>
      <trkpt lat="50.39859" lon="3.45278">
        <ele>23</ele>
        <time>2021-09-12T14:34:11.266Z</time>
      </trkpt>
      <trkpt lat="50.39841" lon="3.45263">
        <ele>23.4</ele>
        <time>2021-09-12T14:34:21.061Z</time>
      </trkpt>
      <trkpt lat="50.39805" lon="3.45233">
        <ele>24</ele>
        <time>2021-09-12T14:34:39.633Z</time>
      </trkpt>
      <trkpt lat="50.39792" lon="3.45219">
        <ele>24.5</ele>
        <time>2021-09-12T14:34:48.393Z</time>
      </trkpt>
      <trkpt lat="50.39768" lon="3.4519">
        <ele>25</ele>
        <time>2021-09-12T14:35:02.461Z</time>
      </trkpt>
      <trkpt lat="50.39755" lon="3.45166">
        <ele>25</ele>
        <time>2021-09-12T14:35:10.375Z</time>
      </trkpt>
      <trkpt lat="50.39734" lon="3.45132">
        <ele>25</ele>
        <time>2021-09-12T14:35:22.270Z</time>
      </trkpt>
      <trkpt lat="50.3972" lon="3.45075">
        <ele>23.9</ele>
        <time>2021-09-12T14:35:29.038Z</time>
      </trkpt>
      <trkpt lat="50.39701" lon="3.45028">
        <ele>23.8</ele>
        <time>2021-09-12T14:35:42.444Z</time>
      </trkpt>
      <trkpt lat="50.39669" lon="3.44944">
        <ele>23.1</ele>
        <time>2021-09-12T14:35:55.699Z</time>
      </trkpt>
      <trkpt lat="50.39653" lon="3.44904">
        <ele>24.5</ele>
        <time>2021-09-12T14:36:15.983Z</time>
      </trkpt>
      <trkpt lat="50.39637" lon="3.44876">
        <ele>25.1</ele>
        <time>2021-09-12T14:36:28.243Z</time>
      </trkpt>
      <trkpt lat="50.39601" lon="3.44862">
        <ele>26.4</ele>
        <time>2021-09-12T14:36:49.776Z</time>
      </trkpt>
      <trkpt lat="50.39605" lon="3.44818">
        <ele>25.7</ele>
        <time>2021-09-12T14:36:54.894Z</time>
      </trkpt>
      <trkpt lat="50.396" lon="3.44785">
        <ele>25.4</ele>
        <time>2021-09-12T14:36:59.335Z</time>
      </trkpt>
      <trkpt lat="50.396" lon="3.44766">
        <ele>25.4</ele>
        <time>2021-09-12T14:37:04.109Z</time>
      </trkpt>
      <trkpt lat="50.39624" lon="3.44773">
        <ele>24.6</ele>
        <time>2021-09-12T14:37:08.156Z</time>
      </trkpt>
      <trkpt lat="50.39663" lon="3.44748">
        <ele>24.3</ele>
        <time>2021-09-12T14:37:23.129Z</time>
      </trkpt>
      <trkpt lat="50.39702" lon="3.44728">
        <ele>23.1</ele>
        <time>2021-09-12T14:37:30.186Z</time>
      </trkpt>
      <trkpt lat="50.39743" lon="3.44725">
        <ele>21.2</ele>
        <time>2021-09-12T14:37:36.165Z</time>
      </trkpt>
      <trkpt lat="50.39789" lon="3.44704">
        <ele>20.2</ele>
        <time>2021-09-12T14:37:45.205Z</time>
      </trkpt>
      <trkpt lat="50.39806" lon="3.44688">
        <ele>19</ele>
        <time>2021-09-12T14:37:47.766Z</time>
      </trkpt>
      <trkpt lat="50.39811" lon="3.44595">
        <ele>19</ele>
        <time>2021-09-12T14:38:11.217Z</time>
      </trkpt>
      <trkpt lat="50.39796" lon="3.44547">
        <ele>19.9</ele>
        <time>2021-09-12T14:38:28.936Z</time>
      </trkpt>
      <trkpt lat="50.39783" lon="3.44494">
        <ele>19.6</ele>
        <time>2021-09-12T14:38:36.935Z</time>
      </trkpt>
      <trkpt lat="50.39765" lon="3.44475">
        <ele>20.6</ele>
        <time>2021-09-12T14:38:51.515Z</time>
      </trkpt>
      <trkpt lat="50.39728" lon="3.4442">
        <ele>20.8</ele>
        <time>2021-09-12T14:39:12.357Z</time>
      </trkpt>
      <trkpt lat="50.39707" lon="3.44381">
        <ele>22.1</ele>
        <time>2021-09-12T14:39:32.587Z</time>
      </trkpt>
      <trkpt lat="50.39706" lon="3.44356">
        <ele>20</ele>
        <time>2021-09-12T14:39:34.734Z</time>
      </trkpt>
      <trkpt lat="50.39736" lon="3.44353">
        <ele>18</ele>
        <time>2021-09-12T14:39:38.441Z</time>
      </trkpt>
      <trkpt lat="50.3976" lon="3.44349">
        <ele>18</ele>
        <time>2021-09-12T14:39:47.955Z</time>
      </trkpt>
      <trkpt lat="50.39797" lon="3.44354">
        <ele>18</ele>
        <time>2021-09-12T14:40:02.594Z</time>
      </trkpt>
      <trkpt lat="50.39854" lon="3.44352">
        <ele>18.9</ele>
        <time>2021-09-12T14:40:28.866Z</time>
      </trkpt>
      <trkpt lat="50.39878" lon="3.44337">
        <ele>19</ele>
        <time>2021-09-12T14:40:39.424Z</time>
      </trkpt>
      <trkpt lat="50.39911" lon="3.44333">
        <ele>19</ele>
        <time>2021-09-12T14:40:52.471Z</time>
      </trkpt>
      <trkpt lat="50.39946" lon="3.44329">
        <ele>19</ele>
        <time>2021-09-12T14:41:06.303Z</time>
      </trkpt>
      <trkpt lat="50.39967" lon="3.44326">
        <ele>19</ele>
        <time>2021-09-12T14:41:14.615Z</time>
      </trkpt>
      <trkpt lat="50.39994" lon="3.44328">
        <ele>19</ele>
        <time>2021-09-12T14:41:25.270Z</time>
      </trkpt>
      <trkpt lat="50.40016" lon="3.44325">
        <ele>19</ele>
        <time>2021-09-12T14:41:33.975Z</time>
      </trkpt>
      <trkpt lat="50.40051" lon="3.44316">
        <ele>19</ele>
        <time>2021-09-12T14:41:47.955Z</time>
      </trkpt>
      <trkpt lat="50.40072" lon="3.44312">
        <ele>19</ele>
        <time>2021-09-12T14:41:56.294Z</time>
      </trkpt>
      <trkpt lat="50.40108" lon="3.44311">
        <ele>19</ele>
        <time>2021-09-12T14:42:10.486Z</time>
      </trkpt>
      <trkpt lat="50.40163" lon="3.44305">
        <ele>19</ele>
        <time>2021-09-12T14:42:32.218Z</time>
      </trkpt>
      <trkpt lat="50.402" lon="3.443">
        <ele>18.8</ele>
        <time>2021-09-12T14:42:45.741Z</time>
      </trkpt>
      <trkpt lat="50.40226" lon="3.44297">
        <ele>18.7</ele>
        <time>2021-09-12T14:42:55.447Z</time>
      </trkpt>
      <trkpt lat="50.4026" lon="3.44292">
        <ele>19.2</ele>
        <time>2021-09-12T14:43:10.993Z</time>
      </trkpt>
      <trkpt lat="50.40291" lon="3.44297">
        <ele>19.8</ele>
        <time>2021-09-12T14:43:25.907Z</time>
      </trkpt>
      <trkpt lat="50.40304" lon="3.44296">
        <ele>20</ele>
        <time>2021-09-12T14:43:31.878Z</time>
      </trkpt>
      <trkpt lat="50.40329" lon="3.44294">
        <ele>20</ele>
        <time>2021-09-12T14:43:41.745Z</time>
      </trkpt>
      <trkpt lat="50.4035" lon="3.44288">
        <ele>20.6</ele>
        <time>2021-09-12T14:43:53.077Z</time>
      </trkpt>
      <trkpt lat="50.40383" lon="3.44279">
        <ele>21</ele>
        <time>2021-09-12T14:44:07.901Z</time>
      </trkpt>
      <trkpt lat="50.40401" lon="3.44276">
        <ele>21.4</ele>
        <time>2021-09-12T14:44:16.847Z</time>
      </trkpt>
      <trkpt lat="50.40461" lon="3.44243">
        <ele>21.3</ele>
        <time>2021-09-12T14:44:41.319Z</time>
      </trkpt>
      <trkpt lat="50.40481" lon="3.44204">
        <ele>21</ele>
        <time>2021-09-12T14:44:48.264Z</time>
      </trkpt>
      <trkpt lat="50.40514" lon="3.44164">
        <ele>20.9</ele>
        <time>2021-09-12T14:45:04.119Z</time>
      </trkpt>
      <trkpt lat="50.40534" lon="3.44147">
        <ele>21</ele>
        <time>2021-09-12T14:45:13.461Z</time>
      </trkpt>
      <trkpt lat="50.40564" lon="3.44132">
        <ele>21.6</ele>
        <time>2021-09-12T14:45:28.497Z</time>
      </trkpt>
      <trkpt lat="50.4058" lon="3.44128">
        <ele>21.7</ele>
        <time>2021-09-12T14:45:35.266Z</time>
      </trkpt>
      <trkpt lat="50.4061" lon="3.44115">
        <ele>21.2</ele>
        <time>2021-09-12T14:45:41.485Z</time>
      </trkpt>
      <trkpt lat="50.4064" lon="3.44085">
        <ele>19.2</ele>
        <time>2021-09-12T14:45:46.245Z</time>
      </trkpt>
      <trkpt lat="50.40654" lon="3.44067">
        <ele>19</ele>
        <time>2021-09-12T14:45:50.100Z</time>
      </trkpt>
      <trkpt lat="50.40643" lon="3.44016">
        <ele>17.1</ele>
        <time>2021-09-12T14:45:54.723Z</time>
      </trkpt>
      <trkpt lat="50.40599" lon="3.43944">
        <ele>17.6</ele>
        <time>2021-09-12T14:46:21.728Z</time>
      </trkpt>
      <trkpt lat="50.40586" lon="3.43916">
        <ele>17.1</ele>
        <time>2021-09-12T14:46:25.810Z</time>
      </trkpt>
      <trkpt lat="50.40566" lon="3.4387">
        <ele>17.8</ele>
        <time>2021-09-12T14:46:42.884Z</time>
      </trkpt>
      <trkpt lat="50.40552" lon="3.43824">
        <ele>18</ele>
        <time>2021-09-12T14:46:56.456Z</time>
      </trkpt>
      <trkpt lat="50.40538" lon="3.43797">
        <ele>18.1</ele>
        <time>2021-09-12T14:47:05.577Z</time>
      </trkpt>
      <trkpt lat="50.40512" lon="3.43754">
        <ele>18.9</ele>
        <time>2021-09-12T14:47:24.052Z</time>
      </trkpt>
      <trkpt lat="50.40497" lon="3.43729">
        <ele>19</ele>
        <time>2021-09-12T14:47:33.054Z</time>
      </trkpt>
      <trkpt lat="50.40477" lon="3.43693">
        <ele>19</ele>
        <time>2021-09-12T14:47:45.052Z</time>
      </trkpt>
      <trkpt lat="50.40459" lon="3.43648">
        <ele>19</ele>
        <time>2021-09-12T14:47:58.400Z</time>
      </trkpt>
      <trkpt lat="50.4045" lon="3.43624">
        <ele>19</ele>
        <time>2021-09-12T14:48:05.396Z</time>
      </trkpt>
      <trkpt lat="50.40418" lon="3.43551">
        <ele>19</ele>
        <time>2021-09-12T14:48:27.655Z</time>
      </trkpt>
      <trkpt lat="50.40395" lon="3.43503">
        <ele>19</ele>
        <time>2021-09-12T14:48:42.742Z</time>
      </trkpt>
      <trkpt lat="50.4038" lon="3.43472">
        <ele>19</ele>
        <time>2021-09-12T14:48:52.521Z</time>
      </trkpt>
      <trkpt lat="50.4036" lon="3.43431">
        <ele>19</ele>
        <time>2021-09-12T14:49:05.492Z</time>
      </trkpt>
      <trkpt lat="50.40339" lon="3.4339">
        <ele>19</ele>
        <time>2021-09-12T14:49:18.707Z</time>
      </trkpt>
      <trkpt lat="50.40328" lon="3.43367">
        <ele>18.2</ele>
        <time>2021-09-12T14:49:21.442Z</time>
      </trkpt>
      <trkpt lat="50.40309" lon="3.4333">
        <ele>18</ele>
        <time>2021-09-12T14:49:32.283Z</time>
      </trkpt>
      <trkpt lat="50.40295" lon="3.43302">
        <ele>18</ele>
        <time>2021-09-12T14:49:41.224Z</time>
      </trkpt>
      <trkpt lat="50.40275" lon="3.43255">
        <ele>18</ele>
        <time>2021-09-12T14:49:55.422Z</time>
      </trkpt>
      <trkpt lat="50.40264" lon="3.43234">
        <ele>18</ele>
        <time>2021-09-12T14:50:02.251Z</time>
      </trkpt>
      <trkpt lat="50.4024" lon="3.43187">
        <ele>18</ele>
        <time>2021-09-12T14:50:17.382Z</time>
      </trkpt>
      <trkpt lat="50.40231" lon="3.43172">
        <ele>18</ele>
        <time>2021-09-12T14:50:22.558Z</time>
      </trkpt>
      <trkpt lat="50.40219" lon="3.43147">
        <ele>18</ele>
        <time>2021-09-12T14:50:30.421Z</time>
      </trkpt>
      <trkpt lat="50.40211" lon="3.43122">
        <ele>18</ele>
        <time>2021-09-12T14:50:37.449Z</time>
      </trkpt>
      <trkpt lat="50.40193" lon="3.43082">
        <ele>18</ele>
        <time>2021-09-12T14:50:49.751Z</time>
      </trkpt>
      <trkpt lat="50.40172" lon="3.43038">
        <ele>18</ele>
        <time>2021-09-12T14:51:03.562Z</time>
      </trkpt>
      <trkpt lat="50.40158" lon="3.43011">
        <ele>18</ele>
        <time>2021-09-12T14:51:12.307Z</time>
      </trkpt>
      <trkpt lat="50.40181" lon="3.42985">
        <ele>18</ele>
        <time>2021-09-12T14:51:23.481Z</time>
      </trkpt>
      <trkpt lat="50.40209" lon="3.42982">
        <ele>18</ele>
        <time>2021-09-12T14:51:34.544Z</time>
      </trkpt>
      <trkpt lat="50.40252" lon="3.4297">
        <ele>18</ele>
        <time>2021-09-12T14:51:51.759Z</time>
      </trkpt>
      <trkpt lat="50.40328" lon="3.42944">
        <ele>18</ele>
        <time>2021-09-12T14:52:22.421Z</time>
      </trkpt>
      <trkpt lat="50.40365" lon="3.42925">
        <ele>18</ele>
        <time>2021-09-12T14:52:37.767Z</time>
      </trkpt>
      <trkpt lat="50.40387" lon="3.42916">
        <ele>18</ele>
        <time>2021-09-12T14:52:46.729Z</time>
      </trkpt>
      <trkpt lat="50.40421" lon="3.42903">
        <ele>18.5</ele>
        <time>2021-09-12T14:53:02.600Z</time>
      </trkpt>
      <trkpt lat="50.40445" lon="3.42891">
        <ele>18.9</ele>
        <time>2021-09-12T14:53:14.219Z</time>
      </trkpt>
      <trkpt lat="50.40477" lon="3.42881">
        <ele>19</ele>
        <time>2021-09-12T14:53:27.452Z</time>
      </trkpt>
      <trkpt lat="50.40499" lon="3.4287">
        <ele>19</ele>
        <time>2021-09-12T14:53:36.554Z</time>
      </trkpt>
      <trkpt lat="50.40533" lon="3.42858">
        <ele>18.8</ele>
        <time>2021-09-12T14:53:49.181Z</time>
      </trkpt>
      <trkpt lat="50.4057" lon="3.42847">
        <ele>18.2</ele>
        <time>2021-09-12T14:53:56.719Z</time>
      </trkpt>
      <trkpt lat="50.40596" lon="3.42834">
        <ele>18</ele>
        <time>2021-09-12T14:54:02.828Z</time>
      </trkpt>
      <trkpt lat="50.40656" lon="3.42812">
        <ele>18</ele>
        <time>2021-09-12T14:54:27.116Z</time>
      </trkpt>
      <trkpt lat="50.40693" lon="3.42798">
        <ele>18</ele>
        <time>2021-09-12T14:54:42.119Z</time>
      </trkpt>
      <trkpt lat="50.40733" lon="3.42796">
        <ele>18</ele>
        <time>2021-09-12T14:54:57.894Z</time>
      </trkpt>
      <trkpt lat="50.4076" lon="3.42794">
        <ele>18</ele>
        <time>2021-09-12T14:55:08.549Z</time>
      </trkpt>
      <trkpt lat="50.4079" lon="3.42793">
        <ele>18.2</ele>
        <time>2021-09-12T14:55:21.146Z</time>
      </trkpt>
      <trkpt lat="50.4081" lon="3.4279">
        <ele>18.6</ele>
        <time>2021-09-12T14:55:30.831Z</time>
      </trkpt>
      <trkpt lat="50.40842" lon="3.42795">
        <ele>19</ele>
        <time>2021-09-12T14:55:45.138Z</time>
      </trkpt>
      <trkpt lat="50.40867" lon="3.42793">
        <ele>19</ele>
        <time>2021-09-12T14:55:55.005Z</time>
      </trkpt>
      <trkpt lat="50.40897" lon="3.42785">
        <ele>19</ele>
        <time>2021-09-12T14:56:07.000Z</time>
      </trkpt>
      <trkpt lat="50.4093" lon="3.42777">
        <ele>19.5</ele>
        <time>2021-09-12T14:56:22.254Z</time>
      </trkpt>
      <trkpt lat="50.40993" lon="3.428">
        <ele>20</ele>
        <time>2021-09-12T14:56:49.694Z</time>
      </trkpt>
      <trkpt lat="50.41023" lon="3.42816">
        <ele>20</ele>
        <time>2021-09-12T14:57:02.183Z</time>
      </trkpt>
      <trkpt lat="50.41067" lon="3.42849">
        <ele>19</ele>
        <time>2021-09-12T14:57:11.424Z</time>
      </trkpt>
      <trkpt lat="50.41091" lon="3.42867">
        <ele>19</ele>
        <time>2021-09-12T14:57:21.910Z</time>
      </trkpt>
      <trkpt lat="50.41159" lon="3.42913">
        <ele>19</ele>
        <time>2021-09-12T14:57:51.099Z</time>
      </trkpt>
      <trkpt lat="50.41192" lon="3.42936">
        <ele>19</ele>
        <time>2021-09-12T14:58:05.332Z</time>
      </trkpt>
      <trkpt lat="50.41207" lon="3.42944">
        <ele>19</ele>
        <time>2021-09-12T14:58:11.577Z</time>
      </trkpt>
      <trkpt lat="50.41237" lon="3.42966">
        <ele>19</ele>
        <time>2021-09-12T14:58:24.630Z</time>
      </trkpt>
      <trkpt lat="50.41262" lon="3.42979">
        <ele>19.4</ele>
        <time>2021-09-12T14:58:36.689Z</time>
      </trkpt>
      <trkpt lat="50.41297" lon="3.43001">
        <ele>20</ele>
        <time>2021-09-12T14:58:54.087Z</time>
      </trkpt>
      <trkpt lat="50.41357" lon="3.43039">
        <ele>20</ele>
        <time>2021-09-12T14:59:19.591Z</time>
      </trkpt>
      <trkpt lat="50.41403" lon="3.43072">
        <ele>19.5</ele>
        <time>2021-09-12T14:59:30.530Z</time>
      </trkpt>
      <trkpt lat="50.4143" lon="3.43087">
        <ele>19</ele>
        <time>2021-09-12T14:59:36.157Z</time>
      </trkpt>
      <trkpt lat="50.41474" lon="3.43119">
        <ele>19</ele>
        <time>2021-09-12T14:59:55.273Z</time>
      </trkpt>
      <trkpt lat="50.41498" lon="3.43152">
        <ele>19.5</ele>
        <time>2021-09-12T15:00:09.959Z</time>
      </trkpt>
      <trkpt lat="50.41526" lon="3.43194">
        <ele>20</ele>
        <time>2021-09-12T15:00:27.274Z</time>
      </trkpt>
      <trkpt lat="50.41562" lon="3.43241">
        <ele>19.8</ele>
        <time>2021-09-12T15:00:44.599Z</time>
      </trkpt>
      <trkpt lat="50.41584" lon="3.43269">
        <ele>19</ele>
        <time>2021-09-12T15:00:49.522Z</time>
      </trkpt>
      <trkpt lat="50.41618" lon="3.43316">
        <ele>19</ele>
        <time>2021-09-12T15:01:07.382Z</time>
      </trkpt>
      <trkpt lat="50.41639" lon="3.4334">
        <ele>19</ele>
        <time>2021-09-12T15:01:17.623Z</time>
      </trkpt>
      <trkpt lat="50.41695" lon="3.4342">
        <ele>19</ele>
        <time>2021-09-12T15:01:47.472Z</time>
      </trkpt>
      <trkpt lat="50.41729" lon="3.43463">
        <ele>19</ele>
        <time>2021-09-12T15:02:04.685Z</time>
      </trkpt>
      <trkpt lat="50.41763" lon="3.4351">
        <ele>19</ele>
        <time>2021-09-12T15:02:22.544Z</time>
      </trkpt>
      <trkpt lat="50.41783" lon="3.43536">
        <ele>18.8</ele>
        <time>2021-09-12T15:02:28.329Z</time>
      </trkpt>
      <trkpt lat="50.41814" lon="3.43573">
        <ele>18</ele>
        <time>2021-09-12T15:02:35.706Z</time>
      </trkpt>
      <trkpt lat="50.41838" lon="3.43602">
        <ele>18</ele>
        <time>2021-09-12T15:02:47.646Z</time>
      </trkpt>
      <trkpt lat="50.41872" lon="3.43643">
        <ele>17.6</ele>
        <time>2021-09-12T15:02:56.988Z</time>
      </trkpt>
      <trkpt lat="50.41896" lon="3.43672">
        <ele>16.7</ele>
        <time>2021-09-12T15:03:02.171Z</time>
      </trkpt>
      <trkpt lat="50.41926" lon="3.43715">
        <ele>16</ele>
        <time>2021-09-12T15:03:10.176Z</time>
      </trkpt>
      <trkpt lat="50.4196" lon="3.43767">
        <ele>16</ele>
        <time>2021-09-12T15:03:28.889Z</time>
      </trkpt>
      <trkpt lat="50.42015" lon="3.43835">
        <ele>16</ele>
        <time>2021-09-12T15:03:56.488Z</time>
      </trkpt>
      <trkpt lat="50.42039" lon="3.43866">
        <ele>16</ele>
        <time>2021-09-12T15:04:08.740Z</time>
      </trkpt>
      <trkpt lat="50.4207" lon="3.43905">
        <ele>16</ele>
        <time>2021-09-12T15:04:24.400Z</time>
      </trkpt>
      <trkpt lat="50.42104" lon="3.43949">
        <ele>16</ele>
        <time>2021-09-12T15:04:41.771Z</time>
      </trkpt>
      <trkpt lat="50.42124" lon="3.43974">
        <ele>16</ele>
        <time>2021-09-12T15:04:51.849Z</time>
      </trkpt>
      <trkpt lat="50.42158" lon="3.44018">
        <ele>16.6</ele>
        <time>2021-09-12T15:05:11.694Z</time>
      </trkpt>
      <trkpt lat="50.42178" lon="3.44043">
        <ele>16.8</ele>
        <time>2021-09-12T15:05:22.550Z</time>
      </trkpt>
      <trkpt lat="50.42208" lon="3.44083">
        <ele>17</ele>
        <time>2021-09-12T15:05:38.824Z</time>
      </trkpt>
      <trkpt lat="50.42228" lon="3.44108">
        <ele>16.8</ele>
        <time>2021-09-12T15:05:44.510Z</time>
      </trkpt>
      <trkpt lat="50.42258" lon="3.4415">
        <ele>16.8</ele>
        <time>2021-09-12T15:06:00.356Z</time>
      </trkpt>
      <trkpt lat="50.42311" lon="3.44222">
        <ele>17</ele>
        <time>2021-09-12T15:06:28.727Z</time>
      </trkpt>
      <trkpt lat="50.42343" lon="3.44262">
        <ele>17</ele>
        <time>2021-09-12T15:06:44.852Z</time>
      </trkpt>
      <trkpt lat="50.42366" lon="3.4429">
        <ele>17.1</ele>
        <time>2021-09-12T15:06:56.698Z</time>
      </trkpt>
      <trkpt lat="50.42393" lon="3.44325">
        <ele>18</ele>
        <time>2021-09-12T15:07:14.752Z</time>
      </trkpt>
      <trkpt lat="50.42404" lon="3.44341">
        <ele>18</ele>
        <time>2021-09-12T15:07:20.663Z</time>
      </trkpt>
      <trkpt lat="50.42432" lon="3.44382">
        <ele>18</ele>
        <time>2021-09-12T15:07:35.757Z</time>
      </trkpt>
      <trkpt lat="50.42463" lon="3.44408">
        <ele>18</ele>
        <time>2021-09-12T15:07:49.612Z</time>
      </trkpt>
      <trkpt lat="50.4248" lon="3.44423">
        <ele>18.1</ele>
        <time>2021-09-12T15:07:57.678Z</time>
      </trkpt>
      <trkpt lat="50.42499" lon="3.44437">
        <ele>18.7</ele>
        <time>2021-09-12T15:08:08.886Z</time>
      </trkpt>
      <trkpt lat="50.42513" lon="3.4441">
        <ele>18.5</ele>
        <time>2021-09-12T15:08:13.739Z</time>
      </trkpt>
      <trkpt lat="50.42568" lon="3.44374">
        <ele>19.4</ele>
        <time>2021-09-12T15:08:40.999Z</time>
      </trkpt>
      <trkpt lat="50.42588" lon="3.44353">
        <ele>20.1</ele>
        <time>2021-09-12T15:08:53.930Z</time>
      </trkpt>
      <trkpt lat="50.42616" lon="3.44321">
        <ele>20.1</ele>
        <time>2021-09-12T15:09:07.582Z</time>
      </trkpt>
      <trkpt lat="50.42636" lon="3.44299">
        <ele>20</ele>
        <time>2021-09-12T15:09:16.640Z</time>
      </trkpt>
      <trkpt lat="50.42671" lon="3.44264">
        <ele>20.1</ele>
        <time>2021-09-12T15:09:33.368Z</time>
      </trkpt>
      <trkpt lat="50.42694" lon="3.44238">
        <ele>20</ele>
        <time>2021-09-12T15:09:43.967Z</time>
      </trkpt>
      <trkpt lat="50.42727" lon="3.44201">
        <ele>20</ele>
        <time>2021-09-12T15:09:59.953Z</time>
      </trkpt>
      <trkpt lat="50.42764" lon="3.44161">
        <ele>19.3</ele>
        <time>2021-09-12T15:10:08.984Z</time>
      </trkpt>
      <trkpt lat="50.4279" lon="3.44137">
        <ele>19</ele>
        <time>2021-09-12T15:10:15.502Z</time>
      </trkpt>
      <trkpt lat="50.42825" lon="3.44105">
        <ele>18.9</ele>
        <time>2021-09-12T15:10:30.886Z</time>
      </trkpt>
      <trkpt lat="50.42887" lon="3.44057">
        <ele>18.1</ele>
        <time>2021-09-12T15:10:45.509Z</time>
      </trkpt>
      <trkpt lat="50.42911" lon="3.44071">
        <ele>17.6</ele>
        <time>2021-09-12T15:10:50.416Z</time>
      </trkpt>
      <trkpt lat="50.42917" lon="3.44093">
        <ele>17</ele>
        <time>2021-09-12T15:10:52.785Z</time>
      </trkpt>
      <trkpt lat="50.42917" lon="3.4415">
        <ele>17.4</ele>
        <time>2021-09-12T15:11:08.704Z</time>
      </trkpt>
      <trkpt lat="50.42923" lon="3.44192">
        <ele>18</ele>
        <time>2021-09-12T15:11:22.222Z</time>
      </trkpt>
      <trkpt lat="50.42919" lon="3.44253">
        <ele>18</ele>
        <time>2021-09-12T15:11:37.620Z</time>
      </trkpt>
      <trkpt lat="50.42914" lon="3.44298">
        <ele>18.1</ele>
        <time>2021-09-12T15:11:49.463Z</time>
      </trkpt>
      <trkpt lat="50.42909" lon="3.44358">
        <ele>18.3</ele>
        <time>2021-09-12T15:12:05.416Z</time>
      </trkpt>
      <trkpt lat="50.42906" lon="3.44382">
        <ele>18.4</ele>
        <time>2021-09-12T15:12:11.941Z</time>
      </trkpt>
      <trkpt lat="50.42888" lon="3.44379">
        <ele>19</ele>
        <time>2021-09-12T15:12:22.187Z</time>
      </trkpt>
      <trkpt lat="50.42853" lon="3.44342">
        <ele>19.6</ele>
        <time>2021-09-12T15:12:41.311Z</time>
      </trkpt>
      <trkpt lat="50.42828" lon="3.44325">
        <ele>20.3</ele>
        <time>2021-09-12T15:12:55.355Z</time>
      </trkpt>
      <trkpt lat="50.42822" lon="3.44341">
        <ele>21</ele>
        <time>2021-09-12T15:13:04.029Z</time>
      </trkpt>
      <trkpt lat="50.42832" lon="3.44369">
        <ele>21.1</ele>
        <time>2021-09-12T15:13:12.468Z</time>
      </trkpt>
      <trkpt lat="50.42845" lon="3.44411">
        <ele>20.6</ele>
        <time>2021-09-12T15:13:18.359Z</time>
      </trkpt>
      <trkpt lat="50.42853" lon="3.44438">
        <ele>20.3</ele>
        <time>2021-09-12T15:13:22.161Z</time>
      </trkpt>
      <trkpt lat="50.42848" lon="3.44465">
        <ele>20.1</ele>
        <time>2021-09-12T15:13:25.970Z</time>
      </trkpt>
      <trkpt lat="50.42839" lon="3.44482">
        <ele>20.6</ele>
        <time>2021-09-12T15:13:34.196Z</time>
      </trkpt>
      <trkpt lat="50.42825" lon="3.44518">
        <ele>21.4</ele>
        <time>2021-09-12T15:13:48.759Z</time>
      </trkpt>
      <trkpt lat="50.42823" lon="3.44549">
        <ele>21.4</ele>
        <time>2021-09-12T15:13:56.583Z</time>
      </trkpt>
      <trkpt lat="50.42824" lon="3.44644">
        <ele>22.8</ele>
        <time>2021-09-12T15:14:26.855Z</time>
      </trkpt>
      <trkpt lat="50.42821" lon="3.44671">
        <ele>23.5</ele>
        <time>2021-09-12T15:14:37.732Z</time>
      </trkpt>
      <trkpt lat="50.42822" lon="3.44699">
        <ele>23.9</ele>
        <time>2021-09-12T15:14:46.591Z</time>
      </trkpt>
      <trkpt lat="50.4283" lon="3.44718">
        <ele>24</ele>
        <time>2021-09-12T15:14:52.695Z</time>
      </trkpt>
      <trkpt lat="50.42858" lon="3.44759">
        <ele>22.1</ele>
        <time>2021-09-12T15:14:58.112Z</time>
      </trkpt>
      <trkpt lat="50.42875" lon="3.44788">
        <ele>21.5</ele>
        <time>2021-09-12T15:15:02.689Z</time>
      </trkpt>
      <trkpt lat="50.42896" lon="3.44846">
        <ele>20.7</ele>
        <time>2021-09-12T15:15:10.903Z</time>
      </trkpt>
      <trkpt lat="50.42923" lon="3.44902">
        <ele>20.8</ele>
        <time>2021-09-12T15:15:28.907Z</time>
      </trkpt>
      <trkpt lat="50.42939" lon="3.44937">
        <ele>20.2</ele>
        <time>2021-09-12T15:15:34.026Z</time>
      </trkpt>
      <trkpt lat="50.4297" lon="3.45004">
        <ele>20</ele>
        <time>2021-09-12T15:15:53.678Z</time>
      </trkpt>
      <trkpt lat="50.42981" lon="3.45031">
        <ele>19.7</ele>
        <time>2021-09-12T15:15:57.828Z</time>
      </trkpt>
      <trkpt lat="50.42997" lon="3.45062">
        <ele>19.1</ele>
        <time>2021-09-12T15:16:02.476Z</time>
      </trkpt>
      <trkpt lat="50.43011" lon="3.4509">
        <ele>18.6</ele>
        <time>2021-09-12T15:16:06.697Z</time>
      </trkpt>
      <trkpt lat="50.4303" lon="3.45134">
        <ele>18</ele>
        <time>2021-09-12T15:16:13.329Z</time>
      </trkpt>
      <trkpt lat="50.43046" lon="3.45168">
        <ele>18</ele>
        <time>2021-09-12T15:16:23.943Z</time>
      </trkpt>
      <trkpt lat="50.4306" lon="3.45206">
        <ele>17</ele>
        <time>2021-09-12T15:16:28.442Z</time>
      </trkpt>
      <trkpt lat="50.43067" lon="3.45232">
        <ele>17</ele>
        <time>2021-09-12T15:16:35.529Z</time>
      </trkpt>
      <trkpt lat="50.43087" lon="3.45278">
        <ele>17</ele>
        <time>2021-09-12T15:16:49.514Z</time>
      </trkpt>
      <trkpt lat="50.43099" lon="3.45323">
        <ele>17.4</ele>
        <time>2021-09-12T15:17:03.400Z</time>
      </trkpt>
      <trkpt lat="50.43117" lon="3.45398">
        <ele>18</ele>
        <time>2021-09-12T15:17:25.952Z</time>
      </trkpt>
      <trkpt lat="50.43126" lon="3.45416">
        <ele>18</ele>
        <time>2021-09-12T15:17:31.698Z</time>
      </trkpt>
      <trkpt lat="50.43136" lon="3.45445">
        <ele>18</ele>
        <time>2021-09-12T15:17:39.978Z</time>
      </trkpt>
      <trkpt lat="50.43138" lon="3.45468">
        <ele>18</ele>
        <time>2021-09-12T15:17:45.807Z</time>
      </trkpt>
      <trkpt lat="50.43144" lon="3.45508">
        <ele>18</ele>
        <time>2021-09-12T15:17:56.125Z</time>
      </trkpt>
      <trkpt lat="50.43149" lon="3.45539">
        <ele>18</ele>
        <time>2021-09-12T15:18:04.155Z</time>
      </trkpt>
      <trkpt lat="50.43155" lon="3.45559">
        <ele>18</ele>
        <time>2021-09-12T15:18:09.706Z</time>
      </trkpt>
      <trkpt lat="50.43155" lon="3.45586">
        <ele>18</ele>
        <time>2021-09-12T15:18:16.485Z</time>
      </trkpt>
      <trkpt lat="50.43157" lon="3.45607">
        <ele>18</ele>
        <time>2021-09-12T15:18:21.817Z</time>
      </trkpt>
      <trkpt lat="50.43162" lon="3.4564">
        <ele>18</ele>
        <time>2021-09-12T15:18:30.334Z</time>
      </trkpt>
      <trkpt lat="50.43171" lon="3.45691">
        <ele>18</ele>
        <time>2021-09-12T15:18:43.622Z</time>
      </trkpt>
      <trkpt lat="50.43179" lon="3.45721">
        <ele>18</ele>
        <time>2021-09-12T15:18:51.788Z</time>
      </trkpt>
      <trkpt lat="50.43181" lon="3.4574">
        <ele>18</ele>
        <time>2021-09-12T15:18:56.623Z</time>
      </trkpt>
      <trkpt lat="50.43188" lon="3.45771">
        <ele>18</ele>
        <time>2021-09-12T15:19:04.882Z</time>
      </trkpt>
      <trkpt lat="50.43191" lon="3.45791">
        <ele>18</ele>
        <time>2021-09-12T15:19:10.041Z</time>
      </trkpt>
      <trkpt lat="50.43197" lon="3.45822">
        <ele>18</ele>
        <time>2021-09-12T15:19:18.176Z</time>
      </trkpt>
      <trkpt lat="50.43201" lon="3.45851">
        <ele>18</ele>
        <time>2021-09-12T15:19:25.626Z</time>
      </trkpt>
      <trkpt lat="50.43204" lon="3.45876">
        <ele>18</ele>
        <time>2021-09-12T15:19:32.014Z</time>
      </trkpt>
      <trkpt lat="50.43208" lon="3.45907">
        <ele>18</ele>
        <time>2021-09-12T15:19:39.956Z</time>
      </trkpt>
      <trkpt lat="50.4321" lon="3.4593">
        <ele>18</ele>
        <time>2021-09-12T15:19:45.784Z</time>
      </trkpt>
      <trkpt lat="50.43217" lon="3.45977">
        <ele>18.8</ele>
        <time>2021-09-12T15:20:01.696Z</time>
      </trkpt>
      <trkpt lat="50.43221" lon="3.46004">
        <ele>19</ele>
        <time>2021-09-12T15:20:09.462Z</time>
      </trkpt>
      <trkpt lat="50.4322" lon="3.4603">
        <ele>18.9</ele>
        <time>2021-09-12T15:20:15.450Z</time>
      </trkpt>
      <trkpt lat="50.43224" lon="3.46048">
        <ele>19.1</ele>
        <time>2021-09-12T15:20:21.087Z</time>
      </trkpt>
      <trkpt lat="50.43228" lon="3.46078">
        <ele>19.2</ele>
        <time>2021-09-12T15:20:29.161Z</time>
      </trkpt>
      <trkpt lat="50.43232" lon="3.46094">
        <ele>19.7</ele>
        <time>2021-09-12T15:20:36.499Z</time>
      </trkpt>
      <trkpt lat="50.43237" lon="3.46147">
        <ele>20.8</ele>
        <time>2021-09-12T15:20:55.588Z</time>
      </trkpt>
      <trkpt lat="50.43244" lon="3.46195">
        <ele>21.8</ele>
        <time>2021-09-12T15:21:13.051Z</time>
      </trkpt>
      <trkpt lat="50.43247" lon="3.46222">
        <ele>21.9</ele>
        <time>2021-09-12T15:21:20.314Z</time>
      </trkpt>
      <trkpt lat="50.43253" lon="3.46262">
        <ele>23</ele>
        <time>2021-09-12T15:21:37.089Z</time>
      </trkpt>
      <trkpt lat="50.43265" lon="3.4633">
        <ele>23.5</ele>
        <time>2021-09-12T15:21:56.816Z</time>
      </trkpt>
      <trkpt lat="50.43269" lon="3.46359">
        <ele>23.7</ele>
        <time>2021-09-12T15:22:05.066Z</time>
      </trkpt>
      <trkpt lat="50.43275" lon="3.46401">
        <ele>23.9</ele>
        <time>2021-09-12T15:22:16.648Z</time>
      </trkpt>
      <trkpt lat="50.4328" lon="3.46454">
        <ele>22.4</ele>
        <time>2021-09-12T15:22:21.726Z</time>
      </trkpt>
      <trkpt lat="50.43287" lon="3.46493">
        <ele>20.7</ele>
        <time>2021-09-12T15:22:24.925Z</time>
      </trkpt>
      <trkpt lat="50.43295" lon="3.46552">
        <ele>18.1</ele>
        <time>2021-09-12T15:22:30.093Z</time>
      </trkpt>
      <trkpt lat="50.433" lon="3.46588">
        <ele>17</ele>
        <time>2021-09-12T15:22:33.494Z</time>
      </trkpt>
      <trkpt lat="50.43309" lon="3.46644">
        <ele>17</ele>
        <time>2021-09-12T15:22:47.996Z</time>
      </trkpt>
      <trkpt lat="50.43314" lon="3.46676">
        <ele>17</ele>
        <time>2021-09-12T15:22:56.269Z</time>
      </trkpt>
      <trkpt lat="50.43321" lon="3.46709">
        <ele>17</ele>
        <time>2021-09-12T15:23:05.002Z</time>
      </trkpt>
      <trkpt lat="50.43325" lon="3.46764">
        <ele>17.7</ele>
        <time>2021-09-12T15:23:21.990Z</time>
      </trkpt>
      <trkpt lat="50.43334" lon="3.46815">
        <ele>18</ele>
        <time>2021-09-12T15:23:36.457Z</time>
      </trkpt>
      <trkpt lat="50.43339" lon="3.46843">
        <ele>18.3</ele>
        <time>2021-09-12T15:23:45.030Z</time>
      </trkpt>
      <trkpt lat="50.43348" lon="3.4689">
        <ele>19</ele>
        <time>2021-09-12T15:24:00.532Z</time>
      </trkpt>
      <trkpt lat="50.43354" lon="3.46919">
        <ele>19</ele>
        <time>2021-09-12T15:24:08.188Z</time>
      </trkpt>
      <trkpt lat="50.43361" lon="3.46964">
        <ele>19</ele>
        <time>2021-09-12T15:24:19.819Z</time>
      </trkpt>
      <trkpt lat="50.43371" lon="3.47005">
        <ele>18.8</ele>
        <time>2021-09-12T15:24:29.753Z</time>
      </trkpt>
      <trkpt lat="50.4338" lon="3.47037">
        <ele>18</ele>
        <time>2021-09-12T15:24:33.333Z</time>
      </trkpt>
      <trkpt lat="50.43392" lon="3.47079">
        <ele>18</ele>
        <time>2021-09-12T15:24:44.890Z</time>
      </trkpt>
      <trkpt lat="50.43399" lon="3.47107">
        <ele>18</ele>
        <time>2021-09-12T15:24:52.443Z</time>
      </trkpt>
      <trkpt lat="50.43427" lon="3.4718">
        <ele>18</ele>
        <time>2021-09-12T15:25:13.838Z</time>
      </trkpt>
      <trkpt lat="50.43433" lon="3.47207">
        <ele>18</ele>
        <time>2021-09-12T15:25:21.018Z</time>
      </trkpt>
      <trkpt lat="50.43443" lon="3.47252">
        <ele>18</ele>
        <time>2021-09-12T15:25:32.984Z</time>
      </trkpt>
      <trkpt lat="50.4345" lon="3.47277">
        <ele>18</ele>
        <time>2021-09-12T15:25:39.841Z</time>
      </trkpt>
      <trkpt lat="50.43462" lon="3.47312">
        <ele>18</ele>
        <time>2021-09-12T15:25:49.821Z</time>
      </trkpt>
      <trkpt lat="50.43468" lon="3.47338">
        <ele>18</ele>
        <time>2021-09-12T15:25:56.764Z</time>
      </trkpt>
      <trkpt lat="50.43478" lon="3.47378">
        <ele>18</ele>
        <time>2021-09-12T15:26:07.553Z</time>
      </trkpt>
      <trkpt lat="50.4348" lon="3.47388">
        <ele>18</ele>
        <time>2021-09-12T15:26:10.184Z</time>
      </trkpt>
      <trkpt lat="50.43483" lon="3.47411">
        <ele>18</ele>
        <time>2021-09-12T15:26:16.079Z</time>
      </trkpt>
      <trkpt lat="50.43489" lon="3.47438">
        <ele>18</ele>
        <time>2021-09-12T15:26:23.258Z</time>
      </trkpt>
      <trkpt lat="50.43503" lon="3.4749">
        <ele>18</ele>
        <time>2021-09-12T15:26:37.433Z</time>
      </trkpt>
      <trkpt lat="50.43508" lon="3.4751">
        <ele>18</ele>
        <time>2021-09-12T15:26:42.827Z</time>
      </trkpt>
      <trkpt lat="50.43519" lon="3.47542">
        <ele>18</ele>
        <time>2021-09-12T15:26:51.957Z</time>
      </trkpt>
      <trkpt lat="50.43529" lon="3.47577">
        <ele>18</ele>
        <time>2021-09-12T15:27:01.588Z</time>
      </trkpt>
      <trkpt lat="50.43533" lon="3.47601">
        <ele>18</ele>
        <time>2021-09-12T15:27:07.816Z</time>
      </trkpt>
      <trkpt lat="50.43542" lon="3.47635">
        <ele>18</ele>
        <time>2021-09-12T15:27:17.061Z</time>
      </trkpt>
      <trkpt lat="50.43547" lon="3.47655">
        <ele>18.6</ele>
        <time>2021-09-12T15:27:26.075Z</time>
      </trkpt>
      <trkpt lat="50.43557" lon="3.47692">
        <ele>19</ele>
        <time>2021-09-12T15:27:37.852Z</time>
      </trkpt>
      <trkpt lat="50.43565" lon="3.47724">
        <ele>19</ele>
        <time>2021-09-12T15:27:46.483Z</time>
      </trkpt>
      <trkpt lat="50.43572" lon="3.47748">
        <ele>19</ele>
        <time>2021-09-12T15:27:53.110Z</time>
      </trkpt>
      <trkpt lat="50.43588" lon="3.47807">
        <ele>19</ele>
        <time>2021-09-12T15:28:09.210Z</time>
      </trkpt>
      <trkpt lat="50.43599" lon="3.47846">
        <ele>19</ele>
        <time>2021-09-12T15:28:19.919Z</time>
      </trkpt>
      <trkpt lat="50.43606" lon="3.47875">
        <ele>19</ele>
        <time>2021-09-12T15:28:27.705Z</time>
      </trkpt>
      <trkpt lat="50.43617" lon="3.47911">
        <ele>19</ele>
        <time>2021-09-12T15:28:37.730Z</time>
      </trkpt>
      <trkpt lat="50.43626" lon="3.47952">
        <ele>19</ele>
        <time>2021-09-12T15:28:48.618Z</time>
      </trkpt>
      <trkpt lat="50.43635" lon="3.4798">
        <ele>19</ele>
        <time>2021-09-12T15:28:56.492Z</time>
      </trkpt>
      <trkpt lat="50.43645" lon="3.48018">
        <ele>19</ele>
        <time>2021-09-12T15:29:06.815Z</time>
      </trkpt>
      <trkpt lat="50.4365" lon="3.48044">
        <ele>19</ele>
        <time>2021-09-12T15:29:13.634Z</time>
      </trkpt>
      <trkpt lat="50.43657" lon="3.48074">
        <ele>19</ele>
        <time>2021-09-12T15:29:21.655Z</time>
      </trkpt>
      <trkpt lat="50.43662" lon="3.48096">
        <ele>19</ele>
        <time>2021-09-12T15:29:27.520Z</time>
      </trkpt>
      <trkpt lat="50.43685" lon="3.48181">
        <ele>19</ele>
        <time>2021-09-12T15:29:50.706Z</time>
      </trkpt>
      <trkpt lat="50.43692" lon="3.4821">
        <ele>19</ele>
        <time>2021-09-12T15:29:58.492Z</time>
      </trkpt>
      <trkpt lat="50.43703" lon="3.48247">
        <ele>19</ele>
        <time>2021-09-12T15:30:08.744Z</time>
      </trkpt>
      <trkpt lat="50.43711" lon="3.4827">
        <ele>19</ele>
        <time>2021-09-12T15:30:15.323Z</time>
      </trkpt>
      <trkpt lat="50.43721" lon="3.48312">
        <ele>19</ele>
        <time>2021-09-12T15:30:26.580Z</time>
      </trkpt>
      <trkpt lat="50.43735" lon="3.48359">
        <ele>19</ele>
        <time>2021-09-12T15:30:39.607Z</time>
      </trkpt>
      <trkpt lat="50.43741" lon="3.48382">
        <ele>19</ele>
        <time>2021-09-12T15:30:45.847Z</time>
      </trkpt>
      <trkpt lat="50.4375" lon="3.48419">
        <ele>19</ele>
        <time>2021-09-12T15:30:55.790Z</time>
      </trkpt>
      <trkpt lat="50.43758" lon="3.48446">
        <ele>19</ele>
        <time>2021-09-12T15:31:03.267Z</time>
      </trkpt>
      <trkpt lat="50.43768" lon="3.48479">
        <ele>19</ele>
        <time>2021-09-12T15:31:12.441Z</time>
      </trkpt>
      <trkpt lat="50.43784" lon="3.48546">
        <ele>19</ele>
        <time>2021-09-12T15:31:30.406Z</time>
      </trkpt>
      <trkpt lat="50.43798" lon="3.4859">
        <ele>19</ele>
        <time>2021-09-12T15:31:42.754Z</time>
      </trkpt>
      <trkpt lat="50.43809" lon="3.48621">
        <ele>18.9</ele>
        <time>2021-09-12T15:31:51.098Z</time>
      </trkpt>
      <trkpt lat="50.43822" lon="3.48667">
        <ele>18.4</ele>
        <time>2021-09-12T15:31:57.540Z</time>
      </trkpt>
      <trkpt lat="50.43826" lon="3.48692">
        <ele>18.3</ele>
        <time>2021-09-12T15:32:03.459Z</time>
      </trkpt>
      <trkpt lat="50.43834" lon="3.48728">
        <ele>19</ele>
        <time>2021-09-12T15:32:16.465Z</time>
      </trkpt>
      <trkpt lat="50.43849" lon="3.48789">
        <ele>19</ele>
        <time>2021-09-12T15:32:32.881Z</time>
      </trkpt>
      <trkpt lat="50.43863" lon="3.4884">
        <ele>19.3</ele>
        <time>2021-09-12T15:32:47.998Z</time>
      </trkpt>
      <trkpt lat="50.43871" lon="3.48872">
        <ele>20</ele>
        <time>2021-09-12T15:33:00.203Z</time>
      </trkpt>
      <trkpt lat="50.43877" lon="3.48896">
        <ele>20</ele>
        <time>2021-09-12T15:33:06.676Z</time>
      </trkpt>
      <trkpt lat="50.43872" lon="3.48879">
        <ele>20</ele>
        <time>2021-09-12T15:33:11.377Z</time>
      </trkpt>
      <trkpt lat="50.43908" lon="3.48915">
        <ele>20</ele>
        <time>2021-09-12T15:33:28.201Z</time>
      </trkpt>
      <trkpt lat="50.43928" lon="3.4894">
        <ele>20</ele>
        <time>2021-09-12T15:33:38.278Z</time>
      </trkpt>
      <trkpt lat="50.43958" lon="3.48976">
        <ele>20</ele>
        <time>2021-09-12T15:33:53.161Z</time>
      </trkpt>
      <trkpt lat="50.43986" lon="3.4901">
        <ele>20</ele>
        <time>2021-09-12T15:34:07.114Z</time>
      </trkpt>
      <trkpt lat="50.44007" lon="3.49034">
        <ele>20</ele>
        <time>2021-09-12T15:34:17.352Z</time>
      </trkpt>
      <trkpt lat="50.44033" lon="3.49062">
        <ele>20</ele>
        <time>2021-09-12T15:34:29.780Z</time>
      </trkpt>
      <trkpt lat="50.44046" lon="3.4908">
        <ele>20</ele>
        <time>2021-09-12T15:34:36.612Z</time>
      </trkpt>
      <trkpt lat="50.44059" lon="3.49105">
        <ele>20</ele>
        <time>2021-09-12T15:34:44.714Z</time>
      </trkpt>
      <trkpt lat="50.44084" lon="3.49124">
        <ele>20</ele>
        <time>2021-09-12T15:34:55.662Z</time>
      </trkpt>
      <trkpt lat="50.44102" lon="3.4916">
        <ele>20.9</ele>
        <time>2021-09-12T15:35:11.683Z</time>
      </trkpt>
      <trkpt lat="50.44094" lon="3.49175">
        <ele>21</ele>
        <time>2021-09-12T15:35:16.985Z</time>
      </trkpt>
      <trkpt lat="50.44076" lon="3.49221">
        <ele>21</ele>
        <time>2021-09-12T15:35:30.538Z</time>
      </trkpt>
      <trkpt lat="50.44069" lon="3.49259">
        <ele>21</ele>
        <time>2021-09-12T15:35:40.469Z</time>
      </trkpt>
      <trkpt lat="50.44067" lon="3.49312">
        <ele>21</ele>
        <time>2021-09-12T15:35:53.797Z</time>
      </trkpt>
      <trkpt lat="50.4407" lon="3.49359">
        <ele>21</ele>
        <time>2021-09-12T15:36:05.655Z</time>
      </trkpt>
      <trkpt lat="50.44064" lon="3.49402">
        <ele>21</ele>
        <time>2021-09-12T15:36:16.706Z</time>
      </trkpt>
      <trkpt lat="50.44042" lon="3.49465">
        <ele>21</ele>
        <time>2021-09-12T15:36:34.744Z</time>
      </trkpt>
      <trkpt lat="50.44038" lon="3.49497">
        <ele>21</ele>
        <time>2021-09-12T15:36:42.930Z</time>
      </trkpt>
      <trkpt lat="50.44052" lon="3.4954">
        <ele>21</ele>
        <time>2021-09-12T15:36:55.054Z</time>
      </trkpt>
      <trkpt lat="50.4407" lon="3.49616">
        <ele>21</ele>
        <time>2021-09-12T15:37:15.410Z</time>
      </trkpt>
      <trkpt lat="50.44087" lon="3.4967">
        <ele>21</ele>
        <time>2021-09-12T15:37:30.532Z</time>
      </trkpt>
      <trkpt lat="50.44099" lon="3.49699">
        <ele>21</ele>
        <time>2021-09-12T15:37:39.214Z</time>
      </trkpt>
      <trkpt lat="50.44107" lon="3.49741">
        <ele>21</ele>
        <time>2021-09-12T15:37:50.219Z</time>
      </trkpt>
      <trkpt lat="50.44111" lon="3.49773">
        <ele>21</ele>
        <time>2021-09-12T15:37:58.406Z</time>
      </trkpt>
      <trkpt lat="50.4412" lon="3.49816">
        <ele>22.1</ele>
        <time>2021-09-12T15:38:15.874Z</time>
      </trkpt>
      <trkpt lat="50.44137" lon="3.49853">
        <ele>23</ele>
        <time>2021-09-12T15:38:31.864Z</time>
      </trkpt>
      <trkpt lat="50.44145" lon="3.49879">
        <ele>23</ele>
        <time>2021-09-12T15:38:39.113Z</time>
      </trkpt>
      <trkpt lat="50.4415" lon="3.49916">
        <ele>23</ele>
        <time>2021-09-12T15:38:48.608Z</time>
      </trkpt>
      <trkpt lat="50.44158" lon="3.49944">
        <ele>23</ele>
        <time>2021-09-12T15:38:56.312Z</time>
      </trkpt>
      <trkpt lat="50.44178" lon="3.50003">
        <ele>23</ele>
        <time>2021-09-12T15:39:13.091Z</time>
      </trkpt>
      <trkpt lat="50.44188" lon="3.50036">
        <ele>23</ele>
        <time>2021-09-12T15:39:22.265Z</time>
      </trkpt>
      <trkpt lat="50.44198" lon="3.50076">
        <ele>23</ele>
        <time>2021-09-12T15:39:33.053Z</time>
      </trkpt>
      <trkpt lat="50.44201" lon="3.50098">
        <ele>23</ele>
        <time>2021-09-12T15:39:38.701Z</time>
      </trkpt>
      <trkpt lat="50.44208" lon="3.50132">
        <ele>23</ele>
        <time>2021-09-12T15:39:47.671Z</time>
      </trkpt>
      <trkpt lat="50.44215" lon="3.50153">
        <ele>23</ele>
        <time>2021-09-12T15:39:53.621Z</time>
      </trkpt>
      <trkpt lat="50.44224" lon="3.50185">
        <ele>23</ele>
        <time>2021-09-12T15:40:02.403Z</time>
      </trkpt>
      <trkpt lat="50.44235" lon="3.50212">
        <ele>23</ele>
        <time>2021-09-12T15:40:10.449Z</time>
      </trkpt>
      <trkpt lat="50.44246" lon="3.50238">
        <ele>23</ele>
        <time>2021-09-12T15:40:18.285Z</time>
      </trkpt>
      <trkpt lat="50.44248" lon="3.50275">
        <ele>23</ele>
        <time>2021-09-12T15:40:27.606Z</time>
      </trkpt>
      <trkpt lat="50.44271" lon="3.50353">
        <ele>23</ele>
        <time>2021-09-12T15:40:49.184Z</time>
      </trkpt>
      <trkpt lat="50.44277" lon="3.50379">
        <ele>23</ele>
        <time>2021-09-12T15:40:56.126Z</time>
      </trkpt>
      <trkpt lat="50.44286" lon="3.50429">
        <ele>23</ele>
        <time>2021-09-12T15:41:09.169Z</time>
      </trkpt>
      <trkpt lat="50.44303" lon="3.50478">
        <ele>23</ele>
        <time>2021-09-12T15:41:23.177Z</time>
      </trkpt>
      <trkpt lat="50.4431" lon="3.50509">
        <ele>22.8</ele>
        <time>2021-09-12T15:41:27.727Z</time>
      </trkpt>
      <trkpt lat="50.44325" lon="3.50559">
        <ele>22.3</ele>
        <time>2021-09-12T15:41:34.926Z</time>
      </trkpt>
      <trkpt lat="50.44329" lon="3.50586">
        <ele>22.2</ele>
        <time>2021-09-12T15:41:41.329Z</time>
      </trkpt>
      <trkpt lat="50.4434" lon="3.5063">
        <ele>22.5</ele>
        <time>2021-09-12T15:41:54.387Z</time>
      </trkpt>
      <trkpt lat="50.4435" lon="3.50663">
        <ele>22.9</ele>
        <time>2021-09-12T15:42:05.275Z</time>
      </trkpt>
      <trkpt lat="50.44358" lon="3.50705">
        <ele>23</ele>
        <time>2021-09-12T15:42:16.653Z</time>
      </trkpt>
      <trkpt lat="50.44378" lon="3.50776">
        <ele>23</ele>
        <time>2021-09-12T15:42:36.142Z</time>
      </trkpt>
      <trkpt lat="50.44394" lon="3.5082">
        <ele>22.9</ele>
        <time>2021-09-12T15:42:48.284Z</time>
      </trkpt>
      <trkpt lat="50.44407" lon="3.50853">
        <ele>22.1</ele>
        <time>2021-09-12T15:42:52.397Z</time>
      </trkpt>
      <trkpt lat="50.44423" lon="3.50899">
        <ele>21.9</ele>
        <time>2021-09-12T15:43:04.448Z</time>
      </trkpt>
      <trkpt lat="50.44429" lon="3.50927">
        <ele>21.3</ele>
        <time>2021-09-12T15:43:07.596Z</time>
      </trkpt>
      <trkpt lat="50.44439" lon="3.50974">
        <ele>21</ele>
        <time>2021-09-12T15:43:14.455Z</time>
      </trkpt>
      <trkpt lat="50.44454" lon="3.51018">
        <ele>21</ele>
        <time>2021-09-12T15:43:26.983Z</time>
      </trkpt>
      <trkpt lat="50.44459" lon="3.51042">
        <ele>21</ele>
        <time>2021-09-12T15:43:33.322Z</time>
      </trkpt>
      <trkpt lat="50.44467" lon="3.51077">
        <ele>21</ele>
        <time>2021-09-12T15:43:42.656Z</time>
      </trkpt>
      <trkpt lat="50.44474" lon="3.51104">
        <ele>21</ele>
        <time>2021-09-12T15:43:49.974Z</time>
      </trkpt>
      <trkpt lat="50.44492" lon="3.51171">
        <ele>21</ele>
        <time>2021-09-12T15:44:08.228Z</time>
      </trkpt>
      <trkpt lat="50.44503" lon="3.51206">
        <ele>21</ele>
        <time>2021-09-12T15:44:18.025Z</time>
      </trkpt>
      <trkpt lat="50.44509" lon="3.51237">
        <ele>20.8</ele>
        <time>2021-09-12T15:44:22.499Z</time>
      </trkpt>
      <trkpt lat="50.44512" lon="3.51258">
        <ele>20.6</ele>
        <time>2021-09-12T15:44:25.289Z</time>
      </trkpt>
      <trkpt lat="50.44526" lon="3.51295">
        <ele>20.1</ele>
        <time>2021-09-12T15:44:30.623Z</time>
      </trkpt>
      <trkpt lat="50.44533" lon="3.51314">
        <ele>19.9</ele>
        <time>2021-09-12T15:44:33.478Z</time>
      </trkpt>
      <trkpt lat="50.44546" lon="3.51344">
        <ele>19.3</ele>
        <time>2021-09-12T15:44:37.595Z</time>
      </trkpt>
      <trkpt lat="50.44563" lon="3.51375">
        <ele>19</ele>
        <time>2021-09-12T15:44:43.109Z</time>
      </trkpt>
      <trkpt lat="50.44573" lon="3.51398">
        <ele>19.1</ele>
        <time>2021-09-12T15:44:50.481Z</time>
      </trkpt>
      <trkpt lat="50.44581" lon="3.51429">
        <ele>19.1</ele>
        <time>2021-09-12T15:44:58.877Z</time>
      </trkpt>
      <trkpt lat="50.4454" lon="3.51501">
        <ele>21.5</ele>
        <time>2021-09-12T15:45:36.607Z</time>
      </trkpt>
      <trkpt lat="50.44521" lon="3.51521">
        <ele>21.5</ele>
        <time>2021-09-12T15:45:45.624Z</time>
      </trkpt>
      <trkpt lat="50.44506" lon="3.51547">
        <ele>21.2</ele>
        <time>2021-09-12T15:45:50.238Z</time>
      </trkpt>
      <trkpt lat="50.44485" lon="3.51572">
        <ele>21.5</ele>
        <time>2021-09-12T15:46:01.835Z</time>
      </trkpt>
      <trkpt lat="50.44471" lon="3.5159">
        <ele>21.8</ele>
        <time>2021-09-12T15:46:10.244Z</time>
      </trkpt>
      <trkpt lat="50.44449" lon="3.51614">
        <ele>21.7</ele>
        <time>2021-09-12T15:46:20.232Z</time>
      </trkpt>
      <trkpt lat="50.44431" lon="3.51637">
        <ele>21.6</ele>
        <time>2021-09-12T15:46:28.813Z</time>
      </trkpt>
      <trkpt lat="50.44412" lon="3.51662">
        <ele>21.3</ele>
        <time>2021-09-12T15:46:34.021Z</time>
      </trkpt>
      <trkpt lat="50.44407" lon="3.51677">
        <ele>21.3</ele>
        <time>2021-09-12T15:46:38.271Z</time>
      </trkpt>
      <trkpt lat="50.44428" lon="3.51704">
        <ele>21</ele>
        <time>2021-09-12T15:46:44.051Z</time>
      </trkpt>
      <trkpt lat="50.44472" lon="3.51753">
        <ele>21</ele>
        <time>2021-09-12T15:47:05.313Z</time>
      </trkpt>
      <trkpt lat="50.44498" lon="3.51781">
        <ele>21</ele>
        <time>2021-09-12T15:47:17.741Z</time>
      </trkpt>
      <trkpt lat="50.44514" lon="3.51802">
        <ele>20.5</ele>
        <time>2021-09-12T15:47:21.538Z</time>
      </trkpt>
      <trkpt lat="50.44544" lon="3.51833">
        <ele>20</ele>
        <time>2021-09-12T15:47:28.909Z</time>
      </trkpt>
      <trkpt lat="50.4457" lon="3.51861">
        <ele>20.5</ele>
        <time>2021-09-12T15:47:43.449Z</time>
      </trkpt>
      <trkpt lat="50.44586" lon="3.51876">
        <ele>20.5</ele>
        <time>2021-09-12T15:47:50.794Z</time>
      </trkpt>
      <trkpt lat="50.44613" lon="3.51906">
        <ele>20.6</ele>
        <time>2021-09-12T15:48:04.203Z</time>
      </trkpt>
      <trkpt lat="50.44633" lon="3.51927">
        <ele>20.5</ele>
        <time>2021-09-12T15:48:13.119Z</time>
      </trkpt>
      <trkpt lat="50.44666" lon="3.5196">
        <ele>20.6</ele>
        <time>2021-09-12T15:48:28.910Z</time>
      </trkpt>
      <trkpt lat="50.44685" lon="3.51982">
        <ele>20.3</ele>
        <time>2021-09-12T15:48:33.830Z</time>
      </trkpt>
      <trkpt lat="50.44754" lon="3.52056">
        <ele>19</ele>
        <time>2021-09-12T15:48:50.633Z</time>
      </trkpt>
      <trkpt lat="50.44776" lon="3.52077">
        <ele>19</ele>
        <time>2021-09-12T15:49:00.781Z</time>
      </trkpt>
      <trkpt lat="50.44807" lon="3.52113">
        <ele>19</ele>
        <time>2021-09-12T15:49:15.979Z</time>
      </trkpt>
      <trkpt lat="50.44825" lon="3.52135">
        <ele>18.9</ele>
        <time>2021-09-12T15:49:24.403Z</time>
      </trkpt>
      <trkpt lat="50.44857" lon="3.52169">
        <ele>19</ele>
        <time>2021-09-12T15:49:40.003Z</time>
      </trkpt>
      <trkpt lat="50.44878" lon="3.52191">
        <ele>19</ele>
        <time>2021-09-12T15:49:49.953Z</time>
      </trkpt>
      <trkpt lat="50.4491" lon="3.52223">
        <ele>19.3</ele>
        <time>2021-09-12T15:50:06.075Z</time>
      </trkpt>
      <trkpt lat="50.44937" lon="3.52251">
        <ele>19.3</ele>
        <time>2021-09-12T15:50:18.829Z</time>
      </trkpt>
      <trkpt lat="50.44954" lon="3.52267">
        <ele>19.6</ele>
        <time>2021-09-12T15:50:27.899Z</time>
      </trkpt>
      <trkpt lat="50.44982" lon="3.52298">
        <ele>20</ele>
        <time>2021-09-12T15:50:43.020Z</time>
      </trkpt>
      <trkpt lat="50.4503" lon="3.52351">
        <ele>20.6</ele>
        <time>2021-09-12T15:51:08.539Z</time>
      </trkpt>
      <trkpt lat="50.45057" lon="3.52383">
        <ele>21.7</ele>
        <time>2021-09-12T15:51:27.529Z</time>
      </trkpt>
      <trkpt lat="50.4508" lon="3.52406">
        <ele>21.7</ele>
        <time>2021-09-12T15:51:38.277Z</time>
      </trkpt>
      <trkpt lat="50.45106" lon="3.52436">
        <ele>21.9</ele>
        <time>2021-09-12T15:51:51.760Z</time>
      </trkpt>
      <trkpt lat="50.45119" lon="3.52452">
        <ele>22</ele>
        <time>2021-09-12T15:51:58.652Z</time>
      </trkpt>
      <trkpt lat="50.45118" lon="3.52464">
        <ele>22.4</ele>
        <time>2021-09-12T15:52:04.031Z</time>
      </trkpt>
      <trkpt lat="50.45098" lon="3.525">
        <ele>24</ele>
        <time>2021-09-12T15:52:25.361Z</time>
      </trkpt>
      <trkpt lat="50.45086" lon="3.52523">
        <ele>24.8</ele>
        <time>2021-09-12T15:52:37.537Z</time>
      </trkpt>
      <trkpt lat="50.45075" lon="3.52542">
        <ele>25.8</ele>
        <time>2021-09-12T15:52:49.695Z</time>
      </trkpt>
      <trkpt lat="50.45071" lon="3.5255">
        <ele>26.2</ele>
        <time>2021-09-12T15:52:54.532Z</time>
      </trkpt>
      <trkpt lat="50.45062" lon="3.52565">
        <ele>26.9</ele>
        <time>2021-09-12T15:53:03.780Z</time>
      </trkpt>
      <trkpt lat="50.45049" lon="3.52577">
        <ele>27.2</ele>
        <time>2021-09-12T15:53:11.048Z</time>
      </trkpt>
      <trkpt lat="50.45039" lon="3.52586">
        <ele>27.6</ele>
        <time>2021-09-12T15:53:17.709Z</time>
      </trkpt>
      <trkpt lat="50.45025" lon="3.52597">
        <ele>28</ele>
        <time>2021-09-12T15:53:25.765Z</time>
      </trkpt>
      <trkpt lat="50.45017" lon="3.52603">
        <ele>28.3</ele>
        <time>2021-09-12T15:53:30.829Z</time>
      </trkpt>
      <trkpt lat="50.45003" lon="3.52614">
        <ele>28.9</ele>
        <time>2021-09-12T15:53:40.338Z</time>
      </trkpt>
      <trkpt lat="50.44996" lon="3.52619">
        <ele>29</ele>
        <time>2021-09-12T15:53:43.779Z</time>
      </trkpt>
      <trkpt lat="50.44986" lon="3.52626">
        <ele>29</ele>
        <time>2021-09-12T15:53:48.095Z</time>
      </trkpt>
      <trkpt lat="50.44979" lon="3.52632">
        <ele>29</ele>
        <time>2021-09-12T15:53:51.238Z</time>
      </trkpt>
      <trkpt lat="50.44976" lon="3.52634">
        <ele>29</ele>
        <time>2021-09-12T15:53:52.523Z</time>
      </trkpt>
      <trkpt lat="50.44972" lon="3.52637">
        <ele>29</ele>
        <time>2021-09-12T15:53:54.270Z</time>
      </trkpt>
      <trkpt lat="50.44969" lon="3.5264">
        <ele>29.1</ele>
        <time>2021-09-12T15:53:56.159Z</time>
      </trkpt>
      <trkpt lat="50.44964" lon="3.52643">
        <ele>29.4</ele>
        <time>2021-09-12T15:54:00.000Z</time>
      </trkpt>
    </trkseg>
  </trk>
</gpx>